Observation data for Boys Ranch on 01/11/2019      Previous  Date  Next       Current Mesonet Observations  Soil Data  Daily Summary Page  Observations in Plain Language
KBY1 110600Z 05001KT 06/01 A2994 RMK A01 T00560014  RH  074%=      5-min Rain = 0
KBY1 110601Z 05001KT 06/01 A2994 RMK A01 T00570014  RH  074%=      5-min Rain = 0
KBY1 110602Z 05001KT 06/02 A2994 RMK A01 T00570017  RH  076%=      5-min Rain = 0
KBY1 110603Z 05001KT 06/02 A2994 RMK A01 T00570018  RH  076%=      5-min Rain = 0
KBY1 110604Z 04001KT 06/02 A2994 RMK A01 T00570017  RH  076%=      5-min Rain = 0
KBY1 110605Z 04002KT 06/01 A2994 RMK A01 T00570013  RH  073%=      5-min Rain = 0
KBY1 110606Z 03001KT 06/01 A2994 RMK A01 T00580011  RH  072%=      5-min Rain = 0
KBY1 110607Z 03000KT 06/01 A2994 RMK A01 T00590011  RH  071%=      5-min Rain = 0
KBY1 110608Z 06000KT 06/01 A2994 RMK A01 T00590012  RH  072%=      5-min Rain = 0
KBY1 110609Z 07001KT 06/01 A2994 RMK A01 T00590011  RH  071%=      5-min Rain = 0
KBY1 110610Z 06000KT 06/01 A2994 RMK A01 T00590010  RH  071%=      5-min Rain = 0
KBY1 110611Z 07001KT 06/01 A2994 RMK A01 T00590009  RH  070%=      5-min Rain = 0
KBY1 110612Z 06001KT 06/01 A2994 RMK A01 T00600008  RH  069%=      5-min Rain = 0
KBY1 110613Z 05002KT 06/01 A2993 RMK A01 T00600009  RH  070%=      5-min Rain = 0
KBY1 110614Z 05001KT 06/01 A2993 RMK A01 T00600014  RH  073%=      5-min Rain = 0
KBY1 110615Z 05001KT 06/02 A2993 RMK A01 T00600024  RH  078%=      5-min Rain = 0
KBY1 110616Z 04002KT 06/03 A2993 RMK A01 T00600026  RH  079%=      5-min Rain = 0
KBY1 110617Z 04003KT 06/02 A2993 RMK A01 T00590024  RH  078%=      5-min Rain = 0
KBY1 110618Z 05003KT 06/02 A2993 RMK A01 T00590021  RH  077%=      5-min Rain = 0
KBY1 110619Z 06002KT 06/02 A2993 RMK A01 T00580020  RH  076%=      5-min Rain = 0
KBY1 110620Z 07001KT 06/02 A2993 RMK A01 T00580022  RH  078%=      5-min Rain = 0
KBY1 110621Z 09000KT 06/03 A2993 RMK A01 T00590026  RH  079%=      5-min Rain = 0
KBY1 110622Z 00000KT 06/03 A2993 RMK A01 T00580027  RH  080%=      5-min Rain = 0
KBY1 110623Z 00000KT 06/02 A2993 RMK A01 T00570024  RH  079%=      5-min Rain = 0
KBY1 110624Z 00000KT 06/02 A2993 RMK A01 T00570021  RH  078%=      5-min Rain = 0
KBY1 110625Z 00000KT 06/02 A2993 RMK A01 T00570021  RH  078%=      5-min Rain = 0
KBY1 110626Z 00000KT 06/02 A2993 RMK A01 T00560024  RH  080%=      5-min Rain = 0
KBY1 110627Z 00000KT 06/03 A2993 RMK A01 T00560026  RH  081%=      5-min Rain = 0
KBY1 110628Z 00000KT 06/02 A2993 RMK A01 T00560024  RH  080%=      5-min Rain = 0
KBY1 110629Z 00000KT 06/02 A2993 RMK A01 T00550024  RH  080%=      5-min Rain = 0
KBY1 110630Z 00000KT 06/02 A2992 RMK A01 T00560024  RH  080%=      5-min Rain = 0
KBY1 110631Z 06000KT 06/02 A2992 RMK A01 T00560020  RH  078%=      5-min Rain = 0
KBY1 110632Z 06001KT 06/02 A2992 RMK A01 T00560016  RH  075%=      5-min Rain = 0
KBY1 110633Z 07001KT 06/02 A2992 RMK A01 T00570015  RH  074%=      5-min Rain = 0
KBY1 110634Z 08000KT 06/02 A2992 RMK A01 T00580021  RH  077%=      5-min Rain = 0
KBY1 110635Z 11000KT 06/02 A2992 RMK A01 T00580024  RH  079%=      5-min Rain = 0
KBY1 110636Z 09001KT 06/02 A2992 RMK A01 T00580020  RH  076%=      5-min Rain = 0
KBY1 110637Z 08001KT 06/02 A2992 RMK A01 T00580018  RH  075%=      5-min Rain = 0
KBY1 110638Z 08001KT 06/02 A2992 RMK A01 T00570019  RH  076%=      5-min Rain = 0
KBY1 110639Z 09001KT 06/02 A2992 RMK A01 T00570020  RH  077%=      5-min Rain = 0
KBY1 110640Z 09001KT 06/03 A2992 RMK A01 T00570028  RH  082%=      5-min Rain = 0
KBY1 110641Z 10001KT 06/03 A2992 RMK A01 T00570031  RH  084%=      5-min Rain = 0
KBY1 110642Z 10001KT 06/03 A2992 RMK A01 T00560032  RH  084%=      5-min Rain = 0
KBY1 110643Z 09001KT 06/03 A2992 RMK A01 T00550032  RH  085%=      5-min Rain = 0
KBY1 110644Z 09001KT 05/03 A2992 RMK A01 T00540031  RH  085%=      5-min Rain = 0
KBY1 110645Z 08002KT 05/03 A2992 RMK A01 T00530031  RH  086%=      5-min Rain = 0
KBY1 110646Z 09001KT 05/03 A2992 RMK A01 T00530030  RH  085%=      5-min Rain = 0
KBY1 110647Z 09001KT 05/03 A2992 RMK A01 T00520030  RH  085%=      5-min Rain = 0
KBY1 110648Z 10001KT 05/03 A2991 RMK A01 T00520029  RH  085%=      5-min Rain = 0
KBY1 110649Z 10001KT 05/03 A2991 RMK A01 T00520030  RH  086%=      5-min Rain = 0
KBY1 110650Z 10000KT 05/03 A2991 RMK A01 T00520030  RH  086%=      5-min Rain = 0
KBY1 110651Z 00000KT 05/03 A2991 RMK A01 T00520031  RH  086%=      5-min Rain = 0
KBY1 110652Z 00000KT 05/03 A2991 RMK A01 T00520030  RH  086%=      5-min Rain = 0
KBY1 110653Z 00000KT 05/03 A2991 RMK A01 T00520028  RH  085%=      5-min Rain = 0
KBY1 110654Z 06001KT 05/03 A2991 RMK A01 T00520029  RH  085%=      5-min Rain = 0
KBY1 110655Z 05001KT 05/03 A2991 RMK A01 T00520027  RH  084%=      5-min Rain = 0
KBY1 110656Z 04000KT 05/03 A2991 RMK A01 T00520026  RH  084%=      5-min Rain = 0
KBY1 110657Z 00000KT 05/03 A2991 RMK A01 T00520026  RH  083%=      5-min Rain = 0
KBY1 110658Z 06000KT 05/03 A2991 RMK A01 T00530026  RH  082%=      5-min Rain = 0
KBY1 110659Z 07001KT 05/02 A2991 RMK A01 T00530022  RH  080%=      5-min Rain = 0
KBY1 110700Z 07001KT 05/02 A2991 RMK A01 T00540019  RH  078%=      5-min Rain = 0
KBY1 110701Z 06001KT 06/02 A2991 RMK A01 T00550018  RH  078%=      5-min Rain = 0
KBY1 110702Z 06001KT 06/02 A2991 RMK A01 T00550018  RH  077%=      5-min Rain = 0
KBY1 110703Z 05001KT 06/02 A2991 RMK A01 T00560016  RH  076%=      5-min Rain = 0
KBY1 110704Z 04001KT 06/02 A2991 RMK A01 T00560016  RH  075%=      5-min Rain = 0
KBY1 110705Z 03001KT 06/02 A2991 RMK A01 T00570016  RH  075%=      5-min Rain = 0
KBY1 110706Z 03001KT 06/02 A2991 RMK A01 T00570016  RH  075%=      5-min Rain = 0
KBY1 110707Z 03001KT 06/02 A2991 RMK A01 T00580016  RH  075%=      5-min Rain = 0
KBY1 110708Z 03000KT 06/02 A2991 RMK A01 T00570017  RH  075%=      5-min Rain = 0
KBY1 110709Z 00000KT 06/02 A2991 RMK A01 T00580017  RH  075%=      5-min Rain = 0
KBY1 110710Z 00000KT 06/02 A2991 RMK A01 T00580018  RH  075%=      5-min Rain = 0
KBY1 110711Z 00000KT 06/02 A2991 RMK A01 T00580017  RH  075%=      5-min Rain = 0
KBY1 110712Z 00000KT 06/02 A2991 RMK A01 T00580017  RH  075%=      5-min Rain = 0
KBY1 110713Z 00000KT 06/02 A2991 RMK A01 T00580016  RH  074%=      5-min Rain = 0
KBY1 110714Z 00000KT 06/02 A2991 RMK A01 T00580015  RH  074%=      5-min Rain = 0
KBY1 110715Z 00000KT 06/02 A2991 RMK A01 T00590016  RH  074%=      5-min Rain = 0
KBY1 110716Z 00000KT 06/02 A2991 RMK A01 T00590015  RH  073%=      5-min Rain = 0
KBY1 110717Z 00000KT 06/01 A2991 RMK A01 T00590014  RH  073%=      5-min Rain = 0
KBY1 110718Z 00000KT 06/01 A2991 RMK A01 T00590014  RH  073%=      5-min Rain = 0
KBY1 110719Z 00000KT 06/01 A2991 RMK A01 T00590014  RH  073%=      5-min Rain = 0
KBY1 110720Z 00000KT 06/01 A2991 RMK A01 T00600014  RH  072%=      5-min Rain = 0
KBY1 110721Z 00000KT 06/01 A2991 RMK A01 T00590013  RH  072%=      5-min Rain = 0
KBY1 110722Z 00000KT 06/02 A2991 RMK A01 T00600015  RH  073%=      5-min Rain = 0
KBY1 110723Z 00000KT 06/02 A2991 RMK A01 T00600018  RH  074%=      5-min Rain = 0
KBY1 110724Z 00000KT 06/02 A2991 RMK A01 T00600018  RH  074%=      5-min Rain = 0
KBY1 110725Z 00000KT 06/02 A2991 RMK A01 T00600019  RH  075%=      5-min Rain = 0
KBY1 110726Z 00000KT 06/02 A2991 RMK A01 T00600019  RH  075%=      5-min Rain = 0
KBY1 110727Z 00000KT 06/02 A2991 RMK A01 T00600018  RH  074%=      5-min Rain = 0
KBY1 110728Z 00000KT 06/02 A2991 RMK A01 T00600018  RH  074%=      5-min Rain = 0
KBY1 110729Z 00000KT 06/02 A2991 RMK A01 T00600020  RH  075%=      5-min Rain = 0
KBY1 110730Z 01000KT 06/02 A2991 RMK A01 T00600018  RH  075%=      5-min Rain = 0
KBY1 110731Z 01001KT 06/02 A2991 RMK A01 T00600017  RH  074%=      5-min Rain = 0
KBY1 110732Z 01001KT 06/02 A2991 RMK A01 T00600023  RH  077%=      5-min Rain = 0
KBY1 110733Z 01001KT 06/02 A2991 RMK A01 T00600023  RH  077%=      5-min Rain = 0
KBY1 110734Z 01000KT 06/02 A2991 RMK A01 T00600024  RH  077%=      5-min Rain = 0
KBY1 110735Z 03001KT 06/03 A2991 RMK A01 T00600028  RH  080%=      5-min Rain = 0
KBY1 110736Z 03001KT 06/03 A2991 RMK A01 T00600026  RH  079%=      5-min Rain = 0
KBY1 110737Z 04001KT 06/02 A2991 RMK A01 T00590023  RH  078%=      5-min Rain = 0
KBY1 110738Z 04001KT 06/02 A2991 RMK A01 T00600022  RH  077%=      5-min Rain = 0
KBY1 110739Z 04001KT 06/02 A2991 RMK A01 T00600023  RH  077%=      5-min Rain = 0
KBY1 110740Z 03001KT 06/02 A2991 RMK A01 T00600024  RH  078%=      5-min Rain = 0
KBY1 110741Z 03000KT 06/03 A2991 RMK A01 T00600027  RH  079%=      5-min Rain = 0
KBY1 110742Z 00000KT 06/03 A2991 RMK A01 T00600028  RH  080%=      5-min Rain = 0
KBY1 110743Z 00000KT 06/03 A2991 RMK A01 T00600029  RH  081%=      5-min Rain = 0
KBY1 110744Z 00000KT 06/03 A2991 RMK A01 T00600029  RH  080%=      5-min Rain = 0
KBY1 110745Z 00000KT 06/03 A2991 RMK A01 T00600031  RH  081%=      5-min Rain = 0
KBY1 110746Z 00000KT 06/03 A2991 RMK A01 T00600031  RH  082%=      5-min Rain = 0
KBY1 110747Z 00000KT 06/03 A2991 RMK A01 T00590028  RH  081%=      5-min Rain = 0
KBY1 110748Z 00000KT 06/03 A2991 RMK A01 T00590027  RH  080%=      5-min Rain = 0
KBY1 110749Z 00000KT 06/03 A2991 RMK A01 T00590027  RH  080%=      5-min Rain = 0
KBY1 110750Z 00000KT 06/03 A2991 RMK A01 T00590030  RH  081%=      5-min Rain = 0
KBY1 110751Z 00000KT 06/03 A2992 RMK A01 T00590033  RH  083%=      5-min Rain = 0
KBY1 110752Z 00000KT 06/03 A2992 RMK A01 T00590032  RH  083%=      5-min Rain = 0
KBY1 110753Z 00000KT 06/03 A2991 RMK A01 T00590031  RH  082%=      5-min Rain = 0
KBY1 110754Z 00000KT 06/03 A2991 RMK A01 T00600032  RH  082%=      5-min Rain = 0
KBY1 110755Z 00000KT 06/03 A2991 RMK A01 T00600034  RH  084%=      5-min Rain = 0
KBY1 110756Z 00000KT 06/04 A2991 RMK A01 T00600036  RH  084%=      5-min Rain = 0
KBY1 110757Z 00000KT 06/04 A2991 RMK A01 T00610035  RH  084%=      5-min Rain = 0
KBY1 110758Z 00000KT 06/04 A2991 RMK A01 T00600035  RH  084%=      5-min Rain = 0
KBY1 110759Z 00000KT 06/04 A2991 RMK A01 T00600037  RH  085%=      5-min Rain = 0
KBY1 110800Z 03000KT 06/04 A2991 RMK A01 T00600039  RH  086%=      5-min Rain = 0
KBY1 110801Z 03001KT 06/04 A2991 RMK A01 T00600041  RH  087%=      5-min Rain = 0
KBY1 110802Z 03001KT 06/04 A2991 RMK A01 T00600041  RH  087%=      5-min Rain = 0
KBY1 110803Z 03001KT 06/04 A2991 RMK A01 T00600041  RH  088%=      5-min Rain = 0
KBY1 110804Z 04001KT 06/04 A2991 RMK A01 T00590040  RH  087%=      5-min Rain = 0
KBY1 110805Z 04001KT 06/04 A2991 RMK A01 T00590039  RH  087%=      5-min Rain = 0
KBY1 110806Z 04001KT 06/04 A2991 RMK A01 T00590038  RH  086%=      5-min Rain = 0
KBY1 110807Z 05001KT 06/04 A2991 RMK A01 T00580038  RH  087%=      5-min Rain = 0
KBY1 110808Z 05001KT 06/04 A2991 RMK A01 T00580039  RH  088%=      5-min Rain = 0
KBY1 110809Z 05001KT 06/04 A2991 RMK A01 T00580039  RH  088%=      5-min Rain = 0
KBY1 110810Z 05001KT 06/04 A2991 RMK A01 T00560038  RH  088%=      5-min Rain = 0
KBY1 110811Z 06000KT 06/04 A2991 RMK A01 T00560037  RH  087%=      5-min Rain = 0
KBY1 110812Z 00000KT 06/04 A2991 RMK A01 T00560038  RH  088%=      5-min Rain = 0
KBY1 110813Z 00000KT 06/04 A2991 RMK A01 T00560040  RH  089%=      5-min Rain = 0
KBY1 110814Z 00000KT 06/04 A2991 RMK A01 T00560040  RH  089%=      5-min Rain = 0
KBY1 110815Z 00000KT 06/04 A2991 RMK A01 T00560041  RH  090%=      5-min Rain = 0
KBY1 110816Z 00000KT 06/04 A2991 RMK A01 T00560041  RH  090%=      5-min Rain = 0
KBY1 110817Z 15001KT 06/04 A2991 RMK A01 T00550040  RH  090%=      5-min Rain = 0
KBY1 110818Z 17001KT 06/04 A2991 RMK A01 T00550040  RH  090%=      5-min Rain = 0
KBY1 110819Z 20002KT 06/04 A2991 RMK A01 T00550039  RH  090%=      5-min Rain = 0
KBY1 110820Z 20001KT 06/04 A2991 RMK A01 T00550039  RH  089%=      5-min Rain = 0
KBY1 110821Z 18001KT 05/04 A2991 RMK A01 T00540037  RH  089%=      5-min Rain = 0
KBY1 110822Z 16000KT 05/04 A2991 RMK A01 T00540036  RH  088%=      5-min Rain = 0
KBY1 110823Z 00000KT 05/03 A2991 RMK A01 T00540034  RH  087%=      5-min Rain = 0
KBY1 110824Z 20000KT 05/03 A2991 RMK A01 T00540033  RH  087%=      5-min Rain = 0
KBY1 110825Z 21001KT 05/03 A2991 RMK A01 T00540033  RH  086%=      5-min Rain = 0
KBY1 110826Z 21000KT 05/03 A2991 RMK A01 T00540033  RH  086%=      5-min Rain = 0
KBY1 110827Z 00000KT 06/03 A2991 RMK A01 T00550033  RH  086%=      5-min Rain = 0
KBY1 110828Z 00000KT 06/03 A2991 RMK A01 T00550032  RH  085%=      5-min Rain = 0
KBY1 110829Z 00000KT 06/03 A2991 RMK A01 T00560032  RH  085%=      5-min Rain = 0
KBY1 110830Z 00000KT 06/03 A2991 RMK A01 T00560032  RH  085%=      5-min Rain = 0
KBY1 110831Z 00000KT 06/03 A2991 RMK A01 T00560032  RH  085%=      5-min Rain = 0
KBY1 110832Z 00000KT 06/03 A2991 RMK A01 T00560032  RH  084%=      5-min Rain = 0
KBY1 110833Z 00000KT 06/03 A2991 RMK A01 T00570032  RH  084%=      5-min Rain = 0
KBY1 110834Z 00000KT 06/03 A2991 RMK A01 T00570032  RH  084%=      5-min Rain = 0
KBY1 110835Z 00000KT 06/03 A2991 RMK A01 T00570032  RH  084%=      5-min Rain = 0
KBY1 110836Z 00000KT 06/03 A2991 RMK A01 T00570032  RH  084%=      5-min Rain = 0
KBY1 110837Z 00000KT 06/03 A2991 RMK A01 T00570032  RH  084%=      5-min Rain = 0
KBY1 110838Z 00000KT 06/03 A2991 RMK A01 T00570034  RH  085%=      5-min Rain = 0
KBY1 110839Z 00000KT 06/04 A2991 RMK A01 T00580035  RH  085%=      5-min Rain = 0
KBY1 110840Z 21000KT 06/03 A2991 RMK A01 T00580033  RH  084%=      5-min Rain = 0
KBY1 110841Z 21000KT 06/03 A2991 RMK A01 T00580032  RH  083%=      5-min Rain = 0
KBY1 110842Z 20000KT 06/03 A2991 RMK A01 T00580031  RH  083%=      5-min Rain = 0
KBY1 110843Z 20001KT 06/03 A2991 RMK A01 T00580030  RH  083%=      5-min Rain = 0
KBY1 110844Z 20000KT 06/03 A2991 RMK A01 T00580030  RH  082%=      5-min Rain = 0
KBY1 110845Z 00000KT 06/03 A2991 RMK A01 T00580030  RH  082%=      5-min Rain = 0
KBY1 110846Z 00000KT 06/03 A2991 RMK A01 T00580026  RH  080%=      5-min Rain = 0
KBY1 110847Z 00000KT 06/02 A2991 RMK A01 T00580022  RH  077%=      5-min Rain = 0
KBY1 110848Z 00000KT 06/02 A2991 RMK A01 T00590021  RH  077%=      5-min Rain = 0
KBY1 110849Z 00000KT 06/02 A2991 RMK A01 T00600021  RH  076%=      5-min Rain = 0
KBY1 110850Z 00000KT 06/02 A2991 RMK A01 T00600022  RH  076%=      5-min Rain = 0
KBY1 110851Z 00000KT 06/02 A299 RMK A01 T00610023  RH  077%=      5-min Rain = 0
KBY1 110852Z 00000KT 06/02 A299 RMK A01 T00610023  RH  077%=      5-min Rain = 0
KBY1 110853Z 00000KT 06/02 A299 RMK A01 T00610023  RH  077%=      5-min Rain = 0
KBY1 110854Z 00000KT 06/03 A299 RMK A01 T00620026  RH  078%=      5-min Rain = 0
KBY1 110855Z 00000KT 06/03 A299 RMK A01 T00620030  RH  080%=      5-min Rain = 0
KBY1 110856Z 00000KT 06/03 A299 RMK A01 T00620032  RH  081%=      5-min Rain = 0
KBY1 110857Z 00000KT 06/03 A299 RMK A01 T00620033  RH  082%=      5-min Rain = 0
KBY1 110858Z 00000KT 06/04 A299 RMK A01 T00620035  RH  082%=      5-min Rain = 0
KBY1 110859Z 00000KT 06/04 A299 RMK A01 T00620035  RH  083%=      5-min Rain = 0
KBY1 110900Z 03001KT 06/03 A2989 RMK A01 T00620034  RH  082%=      5-min Rain = 0
KBY1 110901Z 03001KT 06/03 A2989 RMK A01 T00610033  RH  082%=      5-min Rain = 0
KBY1 110902Z 03000KT 06/03 A2989 RMK A01 T00610031  RH  081%=      5-min Rain = 0
KBY1 110903Z 00000KT 06/03 A2989 RMK A01 T00610033  RH  082%=      5-min Rain = 0
KBY1 110904Z 00000KT 06/03 A2989 RMK A01 T00610034  RH  083%=      5-min Rain = 0
KBY1 110905Z 00000KT 06/03 A2989 RMK A01 T00610034  RH  083%=      5-min Rain = 0
KBY1 110906Z 03000KT 06/03 A2989 RMK A01 T00610033  RH  082%=      5-min Rain = 0
KBY1 110907Z 03002KT 06/03 A2989 RMK A01 T00610031  RH  081%=      5-min Rain = 0
KBY1 110908Z 03002KT 06/03 A2989 RMK A01 T00620032  RH  081%=      5-min Rain = 0
KBY1 110909Z 03000KT 06/04 A2989 RMK A01 T00620035  RH  083%=      5-min Rain = 0
KBY1 110910Z 00000KT 06/04 A2989 RMK A01 T00620036  RH  083%=      5-min Rain = 0
KBY1 110911Z 00000KT 06/03 A2989 RMK A01 T00610034  RH  083%=      5-min Rain = 0
KBY1 110912Z 03001KT 06/03 A2989 RMK A01 T00600034  RH  083%=      5-min Rain = 0
KBY1 110913Z 03001KT 06/03 A2989 RMK A01 T00600033  RH  083%=      5-min Rain = 0
KBY1 110914Z 02000KT 06/03 A2989 RMK A01 T00600033  RH  083%=      5-min Rain = 0
KBY1 110915Z 00000KT 06/03 A2989 RMK A01 T00600034  RH  083%=      5-min Rain = 0
KBY1 110916Z 00000KT 06/03 A2989 RMK A01 T00600034  RH  084%=      5-min Rain = 0
KBY1 110917Z 00000KT 06/03 A2989 RMK A01 T00590033  RH  083%=      5-min Rain = 0
KBY1 110918Z 23000KT 06/03 A2989 RMK A01 T00590033  RH  084%=      5-min Rain = 0
KBY1 110919Z 23001KT 06/03 A2989 RMK A01 T00590034  RH  084%=      5-min Rain = 0
KBY1 110920Z 23001KT 06/03 A2989 RMK A01 T00590034  RH  084%=      5-min Rain = 0
KBY1 110921Z 23002KT 06/04 A2989 RMK A01 T00600036  RH  085%=      5-min Rain = 0
KBY1 110922Z 24002KT 06/04 A2989 RMK A01 T00600037  RH  085%=      5-min Rain = 0
KBY1 110923Z 22003KT 06/04 A2989 RMK A01 T00600035  RH  084%=      5-min Rain = 0
KBY1 110924Z 22002KT 06/04 A2989 RMK A01 T00590035  RH  084%=      5-min Rain = 0
KBY1 110925Z 22002KT 06/04 A2989 RMK A01 T00590036  RH  085%=      5-min Rain = 0
KBY1 110926Z 22002KT 06/04 A2989 RMK A01 T00580035  RH  085%=      5-min Rain = 0
KBY1 110927Z 22003KT 06/03 A2989 RMK A01 T00570034  RH  085%=      5-min Rain = 0
KBY1 110928Z 22003KT 06/03 A2989 RMK A01 T00570034  RH  085%=      5-min Rain = 0
KBY1 110929Z 22003KT 06/03 A2989 RMK A01 T00560033  RH  086%=      5-min Rain = 0
KBY1 110930Z 22003KT 06/03 A2989 RMK A01 T00550034  RH  086%=      5-min Rain = 0
KBY1 110931Z 21003KT 06/03 A2989 RMK A01 T00550034  RH  087%=      5-min Rain = 0
KBY1 110932Z 21003KT 05/03 A2989 RMK A01 T00540033  RH  086%=      5-min Rain = 0
KBY1 110933Z 22002KT 05/03 A2989 RMK A01 T00530032  RH  086%=      5-min Rain = 0
KBY1 110934Z 23002KT 05/03 A299 RMK A01 T00530031  RH  086%=      5-min Rain = 0
KBY1 110935Z 23002KT 05/03 A299 RMK A01 T00530032  RH  087%=      5-min Rain = 0
KBY1 110936Z 24002KT 05/03 A299 RMK A01 T00530034  RH  088%=      5-min Rain = 0
KBY1 110937Z 24002KT 05/04 A299 RMK A01 T00530035  RH  088%=      5-min Rain = 0
KBY1 110938Z 24002KT 05/04 A299 RMK A01 T00540035  RH  088%=      5-min Rain = 0
KBY1 110939Z 24002KT 05/04 A299 RMK A01 T00540035  RH  088%=      5-min Rain = 0
KBY1 110940Z 25002KT 05/04 A299 RMK A01 T00540035  RH  088%=      5-min Rain = 0
KBY1 110941Z 25002KT 05/04 A299 RMK A01 T00540036  RH  088%=      5-min Rain = 0
KBY1 110942Z 26002KT 06/04 A299 RMK A01 T00550037  RH  088%=      5-min Rain = 0
KBY1 110943Z 26001KT 06/04 A299 RMK A01 T00560038  RH  088%=      5-min Rain = 0
KBY1 110944Z 28001KT 06/04 A2989 RMK A01 T00570039  RH  088%=      5-min Rain = 0
KBY1 110945Z 28001KT 06/04 A2989 RMK A01 T00570039  RH  088%=      5-min Rain = 0
KBY1 110946Z 31001KT 06/04 A2989 RMK A01 T00580040  RH  088%=      5-min Rain = 0
KBY1 110947Z 32001KT 06/04 A2989 RMK A01 T00580039  RH  088%=      5-min Rain = 0
KBY1 110948Z 31001KT 06/04 A2989 RMK A01 T00590038  RH  087%=      5-min Rain = 0
KBY1 110949Z 30001KT 06/04 A2989 RMK A01 T00580037  RH  086%=      5-min Rain = 0
KBY1 110950Z 30002KT 06/04 A2989 RMK A01 T00570037  RH  087%=      5-min Rain = 0
KBY1 110951Z 32003KT 06/04 A2989 RMK A01 T00570036  RH  087%=      5-min Rain = 0
KBY1 110952Z 33003KT 06/04 A2988 RMK A01 T00570036  RH  087%=      5-min Rain = 0
KBY1 110953Z 33003KT 06/04 A2988 RMK A01 T00570037  RH  087%=      5-min Rain = 0
KBY1 110954Z 33003KT 06/04 A2988 RMK A01 T00560037  RH  088%=      5-min Rain = 0
KBY1 110955Z 33003KT 06/04 A2988 RMK A01 T00560037  RH  088%=      5-min Rain = 0
KBY1 110956Z 33004KT 06/04 A2988 RMK A01 T00560038  RH  088%=      5-min Rain = 0
KBY1 110957Z 33004KT 06/04 A2988 RMK A01 T00550037  RH  088%=      5-min Rain = 0
KBY1 110958Z 33004KT 06/04 A2988 RMK A01 T00550038  RH  089%=      5-min Rain = 0
KBY1 110959Z 33004KT 06/04 A2988 RMK A01 T00560039  RH  089%=      5-min Rain = 0
KBY1 111000Z 33004KT 06/04 A2988 RMK A01 T00560038  RH  088%=      5-min Rain = 0
KBY1 111001Z 33003KT 06/04 A2988 RMK A01 T00560038  RH  088%=      5-min Rain = 0
KBY1 111002Z 32003KT 06/04 A2988 RMK A01 T00560037  RH  088%=      5-min Rain = 0
KBY1 111003Z 32003KT 06/04 A2988 RMK A01 T00560037  RH  087%=      5-min Rain = 0
KBY1 111004Z 30002KT 06/04 A2988 RMK A01 T00560037  RH  088%=      5-min Rain = 0
KBY1 111005Z 31000KT 06/04 A2988 RMK A01 T00570038  RH  088%=      5-min Rain = 0
KBY1 111006Z 20001KT 06/04 A2988 RMK A01 T00560038  RH  088%=      5-min Rain = 0
KBY1 111007Z 23001KT 06/04 A2988 RMK A01 T00570038  RH  088%=      5-min Rain = 0
KBY1 111008Z 28001KT 06/04 A2988 RMK A01 T00570038  RH  088%=      5-min Rain = 0
KBY1 111009Z 32002KT 06/04 A2988 RMK A01 T00570038  RH  088%=      5-min Rain = 0
KBY1 111010Z 33002KT 06/04 A2988 RMK A01 T00570038  RH  088%=      5-min Rain = 0
KBY1 111011Z 32002KT 06/04 A2988 RMK A01 T00570039  RH  088%=      5-min Rain = 0
KBY1 111012Z 31003KT 06/04 A2988 RMK A01 T00570039  RH  088%=      5-min Rain = 0
KBY1 111013Z 32003KT 06/04 A2988 RMK A01 T00580040  RH  088%=      5-min Rain = 0
KBY1 111014Z 33003KT 06/04 A2988 RMK A01 T00580040  RH  088%=      5-min Rain = 0
KBY1 111015Z 32002KT 06/04 A2988 RMK A01 T00580041  RH  088%=      5-min Rain = 0
KBY1 111016Z 30002KT 06/04 A2988 RMK A01 T00590041  RH  088%=      5-min Rain = 0
KBY1 111017Z 32002KT 06/04 A2988 RMK A01 T00600043  RH  089%=      5-min Rain = 0
KBY1 111018Z 34003KT 06/04 A2988 RMK A01 T00610043  RH  088%=      5-min Rain = 0
KBY1 111019Z 34003KT 06/04 A2988 RMK A01 T00610043  RH  088%=      5-min Rain = 0
KBY1 111020Z 32002KT 06/04 A2988 RMK A01 T00620044  RH  088%=      5-min Rain = 0
KBY1 111021Z 27001KT 06/04 A2988 RMK A01 T00620043  RH  088%=      5-min Rain = 0
KBY1 111022Z 22001KT 06/04 A2987 RMK A01 T00620041  RH  087%=      5-min Rain = 0
KBY1 111023Z 25001KT 06/04 A2987 RMK A01 T00610040  RH  087%=      5-min Rain = 0
KBY1 111024Z 00000KT 06/04 A2987 RMK A01 T00600040  RH  087%=      5-min Rain = 0
KBY1 111025Z 06000KT 06/04 A2987 RMK A01 T00600040  RH  087%=      5-min Rain = 0
KBY1 111026Z 08000KT 06/04 A2987 RMK A01 T00600041  RH  088%=      5-min Rain = 0
KBY1 111027Z 00000KT 06/04 A2987 RMK A01 T00600041  RH  088%=      5-min Rain = 0
KBY1 111028Z 21000KT 06/04 A2987 RMK A01 T00600039  RH  087%=      5-min Rain = 0
KBY1 111029Z 23001KT 06/04 A2987 RMK A01 T00580037  RH  087%=      5-min Rain = 0
KBY1 111030Z 24001KT 06/04 A2987 RMK A01 T00570039  RH  088%=      5-min Rain = 0
KBY1 111031Z 27001KT 06/04 A2987 RMK A01 T00570040  RH  089%=      5-min Rain = 0
KBY1 111032Z 28001KT 06/04 A2987 RMK A01 T00570040  RH  089%=      5-min Rain = 0
KBY1 111033Z 25001KT 06/04 A2987 RMK A01 T00570040  RH  089%=      5-min Rain = 0
KBY1 111034Z 25002KT 06/04 A2987 RMK A01 T00570038  RH  088%=      5-min Rain = 0
KBY1 111035Z 24001KT 06/04 A2987 RMK A01 T00560037  RH  088%=      5-min Rain = 0
KBY1 111036Z 27001KT 06/04 A2987 RMK A01 T00550036  RH  088%=      5-min Rain = 0
KBY1 111037Z 29000KT 06/04 A2987 RMK A01 T00550037  RH  088%=      5-min Rain = 0
KBY1 111038Z 31001KT 06/04 A2987 RMK A01 T00560040  RH  089%=      5-min Rain = 0
KBY1 111039Z 32001KT 06/04 A2987 RMK A01 T00570042  RH  090%=      5-min Rain = 0
KBY1 111040Z 34001KT 06/04 A2986 RMK A01 T00570042  RH  090%=      5-min Rain = 0
KBY1 111041Z 34000KT 06/04 A2987 RMK A01 T00580042  RH  090%=      5-min Rain = 0
KBY1 111042Z 35000KT 06/04 A2987 RMK A01 T00580042  RH  090%=      5-min Rain = 0
KBY1 111043Z 00000KT 06/04 A2987 RMK A01 T00570042  RH  090%=      5-min Rain = 0
KBY1 111044Z 00000KT 06/04 A2987 RMK A01 T00580042  RH  090%=      5-min Rain = 0
KBY1 111045Z 00000KT 06/04 A2987 RMK A01 T00580041  RH  089%=      5-min Rain = 0
KBY1 111046Z 00000KT 06/04 A2986 RMK A01 T00570040  RH  089%=      5-min Rain = 0
KBY1 111047Z 00000KT 06/04 A2986 RMK A01 T00560040  RH  089%=      5-min Rain = 0
KBY1 111048Z 00000KT 06/04 A2986 RMK A01 T00560041  RH  090%=      5-min Rain = 0
KBY1 111049Z 00000KT 06/04 A2986 RMK A01 T00560040  RH  090%=      5-min Rain = 0
KBY1 111050Z 03001KT 06/04 A2986 RMK A01 T00550040  RH  090%=      5-min Rain = 0
KBY1 111051Z 02002KT 06/04 A2986 RMK A01 T00560042  RH  091%=      5-min Rain = 0
KBY1 111052Z 04002KT 06/04 A2986 RMK A01 T00570042  RH  090%=      5-min Rain = 0
KBY1 111053Z 04002KT 06/04 A2986 RMK A01 T00570042  RH  090%=      5-min Rain = 0
KBY1 111054Z 05003KT 06/04 A2985 RMK A01 T00570042  RH  090%=      5-min Rain = 0
KBY1 111055Z 05004KT 06/04 A2985 RMK A01 T00570041  RH  089%=      5-min Rain = 0
KBY1 111056Z 05004KT 06/04 A2985 RMK A01 T00570040  RH  089%=      5-min Rain = 0
KBY1 111057Z 05004KT 06/04 A2985 RMK A01 T00570041  RH  089%=      5-min Rain = 0
KBY1 111058Z 05004KT 06/04 A2985 RMK A01 T00560040  RH  090%=      5-min Rain = 0
KBY1 111059Z 06004KT 06/04 A2985 RMK A01 T00570043  RH  091%=      5-min Rain = 0
KBY1 111100Z 06003KT 06/04 A2985 RMK A01 T00580044  RH  091%=      5-min Rain = 0
KBY1 111101Z 05002KT 06/04 A2985 RMK A01 T00590044  RH  090%=      5-min Rain = 0
KBY1 111102Z 05002KT 06/05 A2986 RMK A01 T00600045  RH  090%=      5-min Rain = 0
KBY1 111103Z 02001KT 06/04 A2986 RMK A01 T00600044  RH  089%=      5-min Rain = 0
KBY1 111104Z 02003KT 06/04 A2986 RMK A01 T00600044  RH  089%=      5-min Rain = 0
KBY1 111105Z 03003KT 06/04 A2987 RMK A01 T00600042  RH  088%=      5-min Rain = 0
KBY1 111106Z 34001KT 06/04 A2987 RMK A01 T00610040  RH  087%=      5-min Rain = 0
KBY1 111107Z 02002KT 06/04 A2987 RMK A01 T00610040  RH  086%=      5-min Rain = 0
KBY1 111108Z 36001KT 06/04 A2987 RMK A01 T00610039  RH  086%=      5-min Rain = 0
KBY1 111109Z 36000KT 06/04 A2987 RMK A01 T00610038  RH  085%=      5-min Rain = 0
KBY1 111110Z 00000KT 06/04 A2987 RMK A01 T00610038  RH  085%=      5-min Rain = 0
KBY1 111111Z 32000KT 06/04 A2987 RMK A01 T00610038  RH  085%=      5-min Rain = 0
KBY1 111112Z 32000KT 06/04 A2987 RMK A01 T00610038  RH  085%=      5-min Rain = 0
KBY1 111113Z 01000KT 06/04 A2987 RMK A01 T00610038  RH  085%=      5-min Rain = 0
KBY1 111114Z 25001KT 06/04 A2987 RMK A01 T00610038  RH  085%=      5-min Rain = 0
KBY1 111115Z 27000KT 06/04 A2987 RMK A01 T00610038  RH  085%=      5-min Rain = 0
KBY1 111116Z 29001KT 06/04 A2987 RMK A01 T00610037  RH  085%=      5-min Rain = 0
KBY1 111117Z 27002KT 06/04 A2987 RMK A01 T00610037  RH  085%=      5-min Rain = 0
KBY1 111118Z 30001KT 06/04 A2987 RMK A01 T00610037  RH  084%=      5-min Rain = 0
KBY1 111119Z 23000KT 06/04 A2987 RMK A01 T00610037  RH  084%=      5-min Rain = 0
KBY1 111120Z 35000KT 06/04 A2987 RMK A01 T00610037  RH  084%=      5-min Rain = 0
KBY1 111121Z 00001KT 06/04 A2987 RMK A01 T00610037  RH  085%=      5-min Rain = 0
KBY1 111122Z 34001KT 06/04 A2987 RMK A01 T00610037  RH  084%=      5-min Rain = 0
KBY1 111123Z 27001KT 06/04 A2987 RMK A01 T00610037  RH  084%=      5-min Rain = 0
KBY1 111124Z 26001KT 06/04 A2987 RMK A01 T00610037  RH  084%=      5-min Rain = 0
KBY1 111125Z 29001KT 06/04 A2987 RMK A01 T00600036  RH  085%=      5-min Rain = 0
KBY1 111126Z 29001KT 06/04 A2987 RMK A01 T00600037  RH  085%=      5-min Rain = 0
KBY1 111127Z 29001KT 06/04 A2987 RMK A01 T00600036  RH  085%=      5-min Rain = 0
KBY1 111128Z 31001KT 06/04 A2987 RMK A01 T00590036  RH  085%=      5-min Rain = 0
KBY1 111129Z 33001KT 06/04 A2986 RMK A01 T00590036  RH  085%=      5-min Rain = 0
KBY1 111130Z 03001KT 06/04 A2986 RMK A01 T00580035  RH  085%=      5-min Rain = 0
KBY1 111131Z 04002KT 06/04 A2986 RMK A01 T00580035  RH  085%=      5-min Rain = 0
KBY1 111132Z 03005KT 06/03 A2986 RMK A01 T00570034  RH  085%=      5-min Rain = 0
KBY1 111133Z 06003KT 06/03 A2986 RMK A01 T00570033  RH  085%=      5-min Rain = 0
KBY1 111134Z 04004KT 06/03 A2986 RMK A01 T00570033  RH  085%=      5-min Rain = 0
KBY1 111135Z 03003KT 06/03 A2986 RMK A01 T00570032  RH  084%=      5-min Rain = 0
KBY1 111136Z 02002KT 06/03 A2987 RMK A01 T00570032  RH  084%=      5-min Rain = 0
KBY1 111137Z 02002KT 06/03 A2987 RMK A01 T00570032  RH  084%=      5-min Rain = 0
KBY1 111138Z 02002KT 06/03 A2987 RMK A01 T00570031  RH  084%=      5-min Rain = 0
KBY1 111139Z 04001KT 06/03 A2987 RMK A01 T00560030  RH  083%=      5-min Rain = 0
KBY1 111140Z 05001KT 06/03 A2987 RMK A01 T00560029  RH  083%=      5-min Rain = 0
KBY1 111141Z 05001KT 06/03 A2987 RMK A01 T00560029  RH  083%=      5-min Rain = 0
KBY1 111142Z 03002KT 06/03 A2987 RMK A01 T00550028  RH  083%=      5-min Rain = 0
KBY1 111143Z 04001KT 06/03 A2987 RMK A01 T00550028  RH  083%=      5-min Rain = 0
KBY1 111144Z 04001KT 06/03 A2987 RMK A01 T00550028  RH  083%=      5-min Rain = 0
KBY1 111145Z 04002KT 06/03 A2987 RMK A01 T00550028  RH  083%=      5-min Rain = 0
KBY1 111146Z 03002KT 05/03 A2987 RMK A01 T00540028  RH  083%=      5-min Rain = 0
KBY1 111147Z 03003KT 05/03 A2987 RMK A01 T00530027  RH  083%=      5-min Rain = 0
KBY1 111148Z 03003KT 05/03 A2987 RMK A01 T00530027  RH  083%=      5-min Rain = 0
KBY1 111149Z 02002KT 05/03 A2987 RMK A01 T00530027  RH  084%=      5-min Rain = 0
KBY1 111150Z 04002KT 05/03 A2987 RMK A01 T00530027  RH  083%=      5-min Rain = 0
KBY1 111151Z 02001KT 05/03 A2987 RMK A01 T00520026  RH  083%=      5-min Rain = 0
KBY1 111152Z 03000KT 05/03 A2987 RMK A01 T00520026  RH  084%=      5-min Rain = 0
KBY1 111153Z 00000KT 05/03 A2987 RMK A01 T00520026  RH  084%=      5-min Rain = 0
KBY1 111154Z 00000KT 05/03 A2987 RMK A01 T00510026  RH  084%=      5-min Rain = 0
KBY1 111155Z 01001KT 05/03 A2987 RMK A01 T00510026  RH  084%=      5-min Rain = 0
KBY1 111156Z 01002KT 05/03 A2987 RMK A01 T00510026  RH  084%=      5-min Rain = 0
KBY1 111157Z 36002KT 05/03 A2987 RMK A01 T00510025  RH  084%=      5-min Rain = 0
KBY1 111158Z 01002KT 05/03 A2986 RMK A01 T00500025  RH  084%=      5-min Rain = 0
KBY1 111159Z 03003KT 05/03 A2986 RMK A01 T00500025  RH  084%=      5-min Rain = 0
KBY1 111200Z 05003KT 05/03 A2986 RMK A01 T00500025  RH  084%=      5-min Rain = 0
KBY1 111201Z 02003KT 05/02 A2986 RMK A01 T00490024  RH  084%=      5-min Rain = 0
KBY1 111202Z 02004KT 05/02 A2986 RMK A01 T00490024  RH  084%=      5-min Rain = 0
KBY1 111203Z 02004KT 05/02 A2986 RMK A01 T00490024  RH  084%=      5-min Rain = 0
KBY1 111204Z 03003KT 05/02 A2986 RMK A01 T00480024  RH  085%=      5-min Rain = 0
KBY1 111205Z 02004KT 05/02 A2986 RMK A01 T00470024  RH  085%=      5-min Rain = 0
KBY1 111206Z 02006KT 05/02 A2986 RMK A01 T00470024  RH  085%=      5-min Rain = 0
KBY1 111207Z 02007KT 05/02 A2986 RMK A01 T00470024  RH  085%=      5-min Rain = 0
KBY1 111208Z 02007KT 05/02 A2986 RMK A01 T00470024  RH  085%=      5-min Rain = 0
KBY1 111209Z 02007KT 05/02 A2986 RMK A01 T00470024  RH  085%=      5-min Rain = 0
KBY1 111210Z 02009KT 05/02 A2986 RMK A01 T00470024  RH  085%=      5-min Rain = 0
KBY1 111211Z 02009KT 05/02 A2985 RMK A01 T00470023  RH  085%=      5-min Rain = 0
KBY1 111212Z 02010KT 05/02 A2985 RMK A01 T00470023  RH  085%=      5-min Rain = 0
KBY1 111213Z 02010KT 05/02 A2985 RMK A01 T00470023  RH  085%=      5-min Rain = 0
KBY1 111214Z 01009KT 05/02 A2985 RMK A01 T00470023  RH  084%=      5-min Rain = 0
KBY1 111215Z 02010KT 05/02 A2985 RMK A01 T00470023  RH  084%=      5-min Rain = 0
KBY1 111216Z 02010KT 05/02 A2985 RMK A01 T00470023  RH  085%=      5-min Rain = 0
KBY1 111217Z 02010KT 05/02 A2985 RMK A01 T00460023  RH  085%=      5-min Rain = 0
KBY1 111218Z 02010KT 05/02 A2985 RMK A01 T00470023  RH  085%=      5-min Rain = 0
KBY1 111219Z 02012KT 05/02 A2985 RMK A01 T00470023  RH  085%=      5-min Rain = 0
KBY1 111220Z 02011KT 05/02 A2985 RMK A01 T00470023  RH  085%=      5-min Rain = 0
KBY1 111221Z 02011KT 05/02 A2985 RMK A01 T00460023  RH  085%=      5-min Rain = 0
KBY1 111222Z 02010KT 05/02 A2985 RMK A01 T00460023  RH  085%=      5-min Rain = 0
KBY1 111223Z 02009KT 05/02 A2985 RMK A01 T00460023  RH  085%=      5-min Rain = 0
KBY1 111224Z 02010KT 05/02 A2985 RMK A01 T00460023  RH  085%=      5-min Rain = 0
KBY1 111225Z 02009KT 05/02 A2985 RMK A01 T00460023  RH  085%=      5-min Rain = 0
KBY1 111226Z 02011KT 05/02 A2985 RMK A01 T00460023  RH  085%=      5-min Rain = 0
KBY1 111227Z 02012KT 05/02 A2985 RMK A01 T00460023  RH  085%=      5-min Rain = 0
KBY1 111228Z 02010KT 05/02 A2985 RMK A01 T00460022  RH  085%=      5-min Rain = 0
KBY1 111229Z 02010KT 05/02 A2985 RMK A01 T00460023  RH  085%=      5-min Rain = 0
KBY1 111230Z 02009KT 05/02 A2985 RMK A01 T00460023  RH  085%=      5-min Rain = 0
KBY1 111231Z 02009G14KT 05/02 A2985 RMK A01 T00460023  RH  085%=      5-min Rain = 0
KBY1 111232Z 02010KT 05/02 A2986 RMK A01 T00460022  RH  085%=      5-min Rain = 0
KBY1 111233Z 01009KT 05/02 A2986 RMK A01 T00460022  RH  085%=      5-min Rain = 0
KBY1 111234Z 02010KT 05/02 A2986 RMK A01 T00460023  RH  085%=      5-min Rain = 0
KBY1 111235Z 02009KT 05/02 A2986 RMK A01 T00460023  RH  085%=      5-min Rain = 0
KBY1 111236Z 02009KT 05/02 A2987 RMK A01 T00460022  RH  085%=      5-min Rain = 0
KBY1 111237Z 02009KT 05/02 A2987 RMK A01 T00460022  RH  084%=      5-min Rain = 0
KBY1 111238Z 02009KT 05/02 A2986 RMK A01 T00460022  RH  085%=      5-min Rain = 0
KBY1 111239Z 02010KT 05/02 A2986 RMK A01 T00460022  RH  085%=      5-min Rain = 0
KBY1 111240Z 02009KT 05/02 A2987 RMK A01 T00460022  RH  085%=      5-min Rain = 0
KBY1 111241Z 02008KT 05/02 A2987 RMK A01 T00460023  RH  084%=      5-min Rain = 0
KBY1 111242Z 02008KT 05/02 A2987 RMK A01 T00470023  RH  085%=      5-min Rain = 0
KBY1 111243Z 03007KT 05/02 A2987 RMK A01 T00460023  RH  085%=      5-min Rain = 0
KBY1 111244Z 04006KT 05/02 A2987 RMK A01 T00460023  RH  085%=      5-min Rain = 0
KBY1 111245Z 05005KT 05/02 A2987 RMK A01 T00460022  RH  085%=      5-min Rain = 0
KBY1 111246Z 08005KT 05/02 A2987 RMK A01 T00450022  RH  085%=      5-min Rain = 0
KBY1 111247Z 10004KT 05/02 A2987 RMK A01 T00450022  RH  085%=      5-min Rain = 0
KBY1 111248Z 12003KT 05/02 A2987 RMK A01 T00450022  RH  085%=      5-min Rain = 0
KBY1 111249Z 13003KT 04/02 A2987 RMK A01 T00440021  RH  085%=      5-min Rain = 0
KBY1 111250Z 12002KT 04/02 A2987 RMK A01 T00440021  RH  085%=      5-min Rain = 0
KBY1 111251Z 10002KT 04/02 A2987 RMK A01 T00440021  RH  085%=      5-min Rain = 0
KBY1 111252Z 13003KT 04/02 A2987 RMK A01 T00430021  RH  085%=      5-min Rain = 0
KBY1 111253Z 11002KT 04/02 A2987 RMK A01 T00430021  RH  086%=      5-min Rain = 0
KBY1 111254Z 08003KT 04/02 A2987 RMK A01 T00430021  RH  086%=      5-min Rain = 0
KBY1 111255Z 08003KT 04/02 A2987 RMK A01 T00430021  RH  086%=      5-min Rain = 0
KBY1 111256Z 09003KT 04/02 A2987 RMK A01 T00440021  RH  086%=      5-min Rain = 0
KBY1 111257Z 05002KT 04/02 A2987 RMK A01 T00440021  RH  085%=      5-min Rain = 0
KBY1 111258Z 04001KT 04/02 A2987 RMK A01 T00440021  RH  085%=      5-min Rain = 0
KBY1 111259Z 06001KT 04/02 A2987 RMK A01 T00440021  RH  085%=      5-min Rain = 0
KBY1 111300Z 00001KT 04/02 A2987 RMK A01 T00430020  RH  085%=      5-min Rain = 0
KBY1 111301Z 01001KT 04/02 A2987 RMK A01 T00430021  RH  085%=      5-min Rain = 0
KBY1 111302Z 02001KT 04/02 A2987 RMK A01 T00430021  RH  086%=      5-min Rain = 0
KBY1 111303Z 05001KT 04/02 A2987 RMK A01 T00430021  RH  086%=      5-min Rain = 0
KBY1 111304Z 05002KT 04/02 A2987 RMK A01 T00430021  RH  086%=      5-min Rain = 0
KBY1 111305Z 16001KT 04/02 A2987 RMK A01 T00430021  RH  086%=      5-min Rain = 0
KBY1 111306Z 03001KT 04/02 A2987 RMK A01 T00430020  RH  085%=      5-min Rain = 0
KBY1 111307Z 08000KT 04/02 A2988 RMK A01 T00420021  RH  086%=      5-min Rain = 0
KBY1 111308Z 00000KT 04/02 A2988 RMK A01 T00420021  RH  086%=      5-min Rain = 0
KBY1 111309Z 00000KT 04/02 A2988 RMK A01 T00420021  RH  086%=      5-min Rain = 0
KBY1 111310Z 00000KT 04/02 A2987 RMK A01 T00420021  RH  086%=      5-min Rain = 0
KBY1 111311Z 07001KT 04/02 A2987 RMK A01 T00420021  RH  086%=      5-min Rain = 0
KBY1 111312Z 06001KT 04/02 A2987 RMK A01 T00420021  RH  086%=      5-min Rain = 0
KBY1 111313Z 06001KT 04/02 A2987 RMK A01 T00420021  RH  086%=      5-min Rain = 0
KBY1 111314Z 05000KT 04/02 A2988 RMK A01 T00420021  RH  086%=      5-min Rain = 0
KBY1 111315Z 07001KT 04/02 A2988 RMK A01 T00420021  RH  086%=      5-min Rain = 0
KBY1 111316Z 10000KT 04/02 A2988 RMK A01 T00420021  RH  086%=      5-min Rain = 0
KBY1 111317Z 00000KT 04/02 A2988 RMK A01 T00420021  RH  086%=      5-min Rain = 0
KBY1 111318Z 09000KT 04/02 A2988 RMK A01 T00420020  RH  086%=      5-min Rain = 0
KBY1 111319Z 00000KT 04/02 A2988 RMK A01 T00410020  RH  086%=      5-min Rain = 0
KBY1 111320Z 00000KT 04/02 A2988 RMK A01 T00410020  RH  086%=      5-min Rain = 0
KBY1 111321Z 31001KT 04/02 A2988 RMK A01 T00410021  RH  087%=      5-min Rain = 0
KBY1 111322Z 31001KT 04/02 A2988 RMK A01 T00410021  RH  087%=      5-min Rain = 0
KBY1 111323Z 30001KT 04/02 A2988 RMK A01 T00410021  RH  086%=      5-min Rain = 0
KBY1 111324Z 32002KT 04/02 A2988 RMK A01 T00410020  RH  086%=      5-min Rain = 0
KBY1 111325Z 33003KT 04/02 A2988 RMK A01 T00410019  RH  086%=      5-min Rain = 0
KBY1 111326Z 36001KT 04/02 A2988 RMK A01 T00410020  RH  087%=      5-min Rain = 0
KBY1 111327Z 35000KT 04/02 A2988 RMK A01 T00410021  RH  087%=      5-min Rain = 0
KBY1 111328Z 00001KT 04/02 A2988 RMK A01 T00410021  RH  087%=      5-min Rain = 0
KBY1 111329Z 02001KT 04/02 A2988 RMK A01 T00410021  RH  087%=      5-min Rain = 0
KBY1 111330Z 32000KT 04/02 A2988 RMK A01 T00410020  RH  087%=      5-min Rain = 0
KBY1 111331Z 33001KT 04/02 A2988 RMK A01 T00400020  RH  087%=      5-min Rain = 0
KBY1 111332Z 00002KT 04/02 A2988 RMK A01 T00400019  RH  087%=      5-min Rain = 0
KBY1 111333Z 01002KT 04/02 A2988 RMK A01 T00390020  RH  087%=      5-min Rain = 0
KBY1 111334Z 35002KT 04/02 A2988 RMK A01 T00390020  RH  087%=      5-min Rain = 0
KBY1 111335Z 01002KT 04/02 A2988 RMK A01 T00380019  RH  087%=      5-min Rain = 0
KBY1 111336Z 03003KT 04/02 A2988 RMK A01 T00380018  RH  087%=      5-min Rain = 0
KBY1 111337Z 04004KT 04/02 A2987 RMK A01 T00370019  RH  088%=      5-min Rain = 0
KBY1 111338Z 04003KT 04/02 A2987 RMK A01 T00380020  RH  088%=      5-min Rain = 0
KBY1 111339Z 02003KT 04/02 A2988 RMK A01 T00380021  RH  088%=      5-min Rain = 0
KBY1 111340Z 01003KT 04/02 A2988 RMK A01 T00380021  RH  088%=      5-min Rain = 0
KBY1 111341Z 02002KT 04/02 A2988 RMK A01 T00390021  RH  088%=      5-min Rain = 0
KBY1 111342Z 01001KT 04/02 A2988 RMK A01 T00380021  RH  088%=      5-min Rain = 0
KBY1 111343Z 05001KT 04/02 A2988 RMK A01 T00380021  RH  088%=      5-min Rain = 0
KBY1 111344Z 06001KT 04/02 A2988 RMK A01 T00380021  RH  088%=      5-min Rain = 0
KBY1 111345Z 15000KT 04/02 A2988 RMK A01 T00390021  RH  088%=      5-min Rain = 0
KBY1 111346Z 21001KT 04/02 A2988 RMK A01 T00390020  RH  088%=      5-min Rain = 0
KBY1 111347Z 20000KT 04/02 A2988 RMK A01 T00390020  RH  088%=      5-min Rain = 0
KBY1 111348Z 35000KT 04/02 A2988 RMK A01 T00380019  RH  088%=      5-min Rain = 0
KBY1 111349Z 04001KT 04/02 A2988 RMK A01 T00380020  RH  088%=      5-min Rain = 0
KBY1 111350Z 01002KT 04/02 A2988 RMK A01 T00380021  RH  089%=      5-min Rain = 0
KBY1 111351Z 00003KT 04/02 A2988 RMK A01 T00380021  RH  089%=      5-min Rain = 0
KBY1 111352Z 03002KT 04/02 A2988 RMK A01 T00380021  RH  089%=      5-min Rain = 0
KBY1 111353Z 03001KT 04/02 A2988 RMK A01 T00390021  RH  088%=      5-min Rain = 0
KBY1 111354Z 35001KT 04/02 A2988 RMK A01 T00390021  RH  088%=      5-min Rain = 0
KBY1 111355Z 00002KT 04/02 A2988 RMK A01 T00390021  RH  088%=      5-min Rain = 0
KBY1 111356Z 01001KT 04/02 A2988 RMK A01 T00390021  RH  088%=      5-min Rain = 0
KBY1 111357Z 35000KT 04/02 A2988 RMK A01 T00390021  RH  088%=      5-min Rain = 0
KBY1 111358Z 24001KT 04/02 A2988 RMK A01 T00390021  RH  088%=      5-min Rain = 0
KBY1 111359Z 23002KT 04/02 A2988 RMK A01 T00390021  RH  088%=      5-min Rain = 0
KBY1 111400Z 24003KT 04/02 A2988 RMK A01 T00390021  RH  088%=      5-min Rain = 0
KBY1 111401Z 23003KT 04/02 A2988 RMK A01 T00380020  RH  088%=      5-min Rain = 0
KBY1 111402Z 25004KT 04/02 A2988 RMK A01 T00360018  RH  088%=      5-min Rain = 0
KBY1 111403Z 25004KT 04/02 A2988 RMK A01 T00350018  RH  089%=      5-min Rain = 0
KBY1 111404Z 26003KT 03/02 A2988 RMK A01 T00340019  RH  090%=      5-min Rain = 0
KBY1 111405Z 29002KT 04/02 A2988 RMK A01 T00350020  RH  090%=      5-min Rain = 0
KBY1 111406Z 27004KT 04/02 A2988 RMK A01 T00360022  RH  091%=      5-min Rain = 0
KBY1 111407Z 26004KT 04/02 A2988 RMK A01 T00370022  RH  090%=      5-min Rain = 0
KBY1 111408Z 25004KT 04/02 A2988 RMK A01 T00360021  RH  090%=      5-min Rain = 0
KBY1 111409Z 25003KT 04/02 A2988 RMK A01 T00370021  RH  090%=      5-min Rain = 0
KBY1 111410Z 26004KT 04/02 A2988 RMK A01 T00370021  RH  090%=      5-min Rain = 0
KBY1 111411Z 26003KT 04/02 A2988 RMK A01 T00370021  RH  090%=      5-min Rain = 0
KBY1 111412Z 26003KT 04/02 A2988 RMK A01 T00370022  RH  090%=      5-min Rain = 0
KBY1 111413Z 26004KT 04/02 A2988 RMK A01 T00360021  RH  090%=      5-min Rain = 0
KBY1 111414Z 26004KT 04/02 A2988 RMK A01 T00370021  RH  090%=      5-min Rain = 0
KBY1 111415Z 26004KT 04/02 A2988 RMK A01 T00360021  RH  090%=      5-min Rain = 0
KBY1 111416Z 26004KT 04/02 A2988 RMK A01 T00370022  RH  090%=      5-min Rain = 0
KBY1 111417Z 27004KT 04/02 A2988 RMK A01 T00370022  RH  090%=      5-min Rain = 0
KBY1 111418Z 27003KT 04/02 A2988 RMK A01 T00370023  RH  090%=      5-min Rain = 0
KBY1 111419Z 27004KT 04/02 A2988 RMK A01 T00380023  RH  090%=      5-min Rain = 0
KBY1 111420Z 27004KT 04/02 A2988 RMK A01 T00390023  RH  090%=      5-min Rain = 0
KBY1 111421Z 29003KT 04/02 A2988 RMK A01 T00390023  RH  089%=      5-min Rain = 0
KBY1 111422Z 30004KT 04/02 A2988 RMK A01 T00390023  RH  089%=      5-min Rain = 0
KBY1 111423Z 29003KT 04/02 A2988 RMK A01 T00400023  RH  089%=      5-min Rain = 0
KBY1 111424Z 29003KT 04/02 A2987 RMK A01 T00400023  RH  089%=      5-min Rain = 0
KBY1 111425Z 32002KT 04/02 A2987 RMK A01 T00410023  RH  088%=      5-min Rain = 0
KBY1 111426Z 33002KT 04/02 A2988 RMK A01 T00410023  RH  088%=      5-min Rain = 0
KBY1 111427Z 32002KT 04/02 A2988 RMK A01 T00410023  RH  088%=      5-min Rain = 0
KBY1 111428Z 31002KT 04/02 A2988 RMK A01 T00410024  RH  088%=      5-min Rain = 0
KBY1 111429Z 30002KT 04/02 A2988 RMK A01 T00410023  RH  088%=      5-min Rain = 0
KBY1 111430Z 33004KT 04/02 A2988 RMK A01 T00410023  RH  088%=      5-min Rain = 0
KBY1 111431Z 34003KT 04/02 A2988 RMK A01 T00410023  RH  088%=      5-min Rain = 0
KBY1 111432Z 33002KT 04/02 A2988 RMK A01 T00410023  RH  088%=      5-min Rain = 0
KBY1 111433Z 33002KT 04/02 A2988 RMK A01 T00410023  RH  088%=      5-min Rain = 0
KBY1 111434Z 32002KT 04/02 A2987 RMK A01 T00410023  RH  088%=      5-min Rain = 0
KBY1 111435Z 32002KT 04/02 A2987 RMK A01 T00410023  RH  088%=      5-min Rain = 0
KBY1 111436Z 33002KT 04/02 A2987 RMK A01 T00410023  RH  088%=      5-min Rain = 0
KBY1 111437Z 34002KT 04/02 A2987 RMK A01 T00420024  RH  088%=      5-min Rain = 0
KBY1 111438Z 32003KT 04/02 A2987 RMK A01 T00410024  RH  088%=      5-min Rain = 0
KBY1 111439Z 34004KT 04/02 A2987 RMK A01 T00420023  RH  088%=      5-min Rain = 0
KBY1 111440Z 33004KT 04/02 A2987 RMK A01 T00420024  RH  088%=      5-min Rain = 0
KBY1 111441Z 36005KT 04/02 A2987 RMK A01 T00420023  RH  087%=      5-min Rain = 0
KBY1 111442Z 01005KT 04/02 A2987 RMK A01 T00430023  RH  087%=      5-min Rain = 0
KBY1 111443Z 02005KT 04/02 A2987 RMK A01 T00430023  RH  087%=      5-min Rain = 0
KBY1 111444Z 01006KT 04/02 A2987 RMK A01 T00430023  RH  087%=      5-min Rain = 0
KBY1 111445Z 01004KT 04/02 A2987 RMK A01 T00430023  RH  087%=      5-min Rain = 0
KBY1 111446Z 01003KT 04/02 A2987 RMK A01 T00430023  RH  087%=      5-min Rain = 0
KBY1 111447Z 00005KT 04/02 A2987 RMK A01 T00430024  RH  087%=      5-min Rain = 0
KBY1 111448Z 01006KT 04/02 A2987 RMK A01 T00440023  RH  087%=      5-min Rain = 0
KBY1 111449Z 01006KT 04/02 A2987 RMK A01 T00430023  RH  086%=      5-min Rain = 0
KBY1 111450Z 03006KT 04/02 A2987 RMK A01 T00440023  RH  086%=      5-min Rain = 0
KBY1 111451Z 01005KT 04/02 A2987 RMK A01 T00440023  RH  086%=      5-min Rain = 0
KBY1 111452Z 01005KT 04/02 A2987 RMK A01 T00440023  RH  086%=      5-min Rain = 0
KBY1 111453Z 02007KT 04/02 A2987 RMK A01 T00440022  RH  086%=      5-min Rain = 0
KBY1 111454Z 02008KT 05/02 A2987 RMK A01 T00450023  RH  086%=      5-min Rain = 0
KBY1 111455Z 01008KT 04/02 A2987 RMK A01 T00440022  RH  085%=      5-min Rain = 0
KBY1 111456Z 01009KT 05/02 A2987 RMK A01 T00450022  RH  085%=      5-min Rain = 0
KBY1 111457Z 01008KT 05/02 A2987 RMK A01 T00450022  RH  085%=      5-min Rain = 0
KBY1 111458Z 01006KT 05/02 A2987 RMK A01 T00450022  RH  085%=      5-min Rain = 0
KBY1 111459Z 01009KT 05/02 A2987 RMK A01 T00460022  RH  085%=      5-min Rain = 0
KBY1 111500Z 02007KT 05/02 A2987 RMK A01 T00450022  RH  085%=      5-min Rain = 0
KBY1 111501Z 02009KT 05/02 A2987 RMK A01 T00460022  RH  084%=      5-min Rain = 0
KBY1 111502Z 02010KT 05/02 A2987 RMK A01 T00460021  RH  084%=      5-min Rain = 0
KBY1 111503Z 02009KT 05/02 A2987 RMK A01 T00460021  RH  084%=      5-min Rain = 0
KBY1 111504Z 02008KT 05/02 A2987 RMK A01 T00460021  RH  084%=      5-min Rain = 0
KBY1 111505Z 02011KT 05/02 A2988 RMK A01 T00460021  RH  084%=      5-min Rain = 0
KBY1 111506Z 03007G12KT 05/02 A2988 RMK A01 T00460021  RH  084%=      5-min Rain = 0
KBY1 111507Z 02006KT 05/02 A2988 RMK A01 T00460021  RH  084%=      5-min Rain = 0
KBY1 111508Z 03006KT 05/02 A2988 RMK A01 T00460021  RH  084%=      5-min Rain = 0
KBY1 111509Z 02009KT 05/02 A2988 RMK A01 T00470021  RH  084%=      5-min Rain = 0
KBY1 111510Z 02010KT 05/02 A2988 RMK A01 T00470020  RH  083%=      5-min Rain = 0
KBY1 111511Z 02010KT 05/02 A2988 RMK A01 T00470020  RH  083%=      5-min Rain = 0
KBY1 111512Z 02007KT 05/02 A2988 RMK A01 T00470020  RH  083%=      5-min Rain = 0
KBY1 111513Z 02010KT 05/02 A2988 RMK A01 T00470020  RH  083%=      5-min Rain = 0
KBY1 111514Z 02009KT 05/02 A2988 RMK A01 T00470020  RH  083%=      5-min Rain = 0
KBY1 111515Z 02009KT 05/02 A2988 RMK A01 T00470020  RH  082%=      5-min Rain = 0
KBY1 111516Z 01008KT 05/02 A2988 RMK A01 T00470020  RH  082%=      5-min Rain = 0
KBY1 111517Z 01009KT 05/02 A2988 RMK A01 T00470019  RH  082%=      5-min Rain = 0
KBY1 111518Z 01008KT 05/02 A2988 RMK A01 T00470019  RH  082%=      5-min Rain = 0
KBY1 111519Z 01009KT 05/02 A2988 RMK A01 T00470020  RH  082%=      5-min Rain = 0
KBY1 111520Z 02008KT 05/02 A2988 RMK A01 T00480020  RH  082%=      5-min Rain = 0
KBY1 111521Z 01008KT 05/02 A2988 RMK A01 T00470020  RH  082%=      5-min Rain = 0
KBY1 111522Z 01007KT 05/02 A2988 RMK A01 T00480020  RH  082%=      5-min Rain = 0
KBY1 111523Z 02008KT 05/02 A2988 RMK A01 T00480021  RH  083%=      5-min Rain = 0
KBY1 111524Z 02008KT 05/02 A2988 RMK A01 T00480021  RH  082%=      5-min Rain = 0
KBY1 111525Z 02006KT 05/02 A2988 RMK A01 T00480021  RH  082%=      5-min Rain = 0
KBY1 111526Z 02008G13KT 05/02 A2988 RMK A01 T00490021  RH  082%=      5-min Rain = 0
KBY1 111527Z 02010KT 05/02 A2988 RMK A01 T00490020  RH  082%=      5-min Rain = 0
KBY1 111528Z 02008KT 05/02 A2988 RMK A01 T00490020  RH  082%=      5-min Rain = 0
KBY1 111529Z 02010KT 05/02 A2988 RMK A01 T00490020  RH  081%=      5-min Rain = 0
KBY1 111530Z 01008KT 05/02 A2988 RMK A01 T00490020  RH  081%=      5-min Rain = 0
KBY1 111531Z 02007KT 05/02 A2989 RMK A01 T00490020  RH  082%=      5-min Rain = 0
KBY1 111532Z 01007KT 05/02 A2989 RMK A01 T00490020  RH  082%=      5-min Rain = 0
KBY1 111533Z 00009KT 05/02 A2989 RMK A01 T00500021  RH  081%=      5-min Rain = 0
KBY1 111534Z 01008KT 05/02 A2989 RMK A01 T00500020  RH  081%=      5-min Rain = 0
KBY1 111535Z 00012KT 05/02 A2989 RMK A01 T00500020  RH  081%=      5-min Rain = 0
KBY1 111536Z 01010KT 05/02 A2989 RMK A01 T00500019  RH  081%=      5-min Rain = 0
KBY1 111537Z 01010KT 05/02 A2989 RMK A01 T00500019  RH  081%=      5-min Rain = 0
KBY1 111538Z 01010KT 05/02 A2989 RMK A01 T00500019  RH  081%=      5-min Rain = 0
KBY1 111539Z 01010KT 05/02 A2989 RMK A01 T00500020  RH  081%=      5-min Rain = 0
KBY1 111540Z 01010KT 05/02 A2989 RMK A01 T00510020  RH  081%=      5-min Rain = 0
KBY1 111541Z 01008KT 05/02 A2989 RMK A01 T00520021  RH  081%=      5-min Rain = 0
KBY1 111542Z 01006KT 05/02 A299 RMK A01 T00520021  RH  081%=      5-min Rain = 0
KBY1 111543Z 01011KT 05/02 A299 RMK A01 T00520021  RH  080%=      5-min Rain = 0
KBY1 111544Z 01010KT 05/02 A299 RMK A01 T00530020  RH  080%=      5-min Rain = 0
KBY1 111545Z 03011KT 05/02 A299 RMK A01 T00530020  RH  080%=      5-min Rain = 0
KBY1 111546Z 02010KT 05/02 A299 RMK A01 T00530022  RH  080%=      5-min Rain = 0
KBY1 111547Z 02010KT 05/02 A299 RMK A01 T00540022  RH  080%=      5-min Rain = 0
KBY1 111548Z 02009KT 05/02 A299 RMK A01 T00540021  RH  079%=      5-min Rain = 0
KBY1 111549Z 02013KT 05/02 A299 RMK A01 T00540021  RH  079%=      5-min Rain = 0
KBY1 111550Z 02014KT 05/02 A299 RMK A01 T00540020  RH  079%=      5-min Rain = 0
KBY1 111551Z 02011KT 05/02 A299 RMK A01 T00540020  RH  079%=      5-min Rain = 0
KBY1 111552Z 02011KT 05/02 A299 RMK A01 T00540021  RH  079%=      5-min Rain = 0
KBY1 111553Z 02013KT 05/02 A299 RMK A01 T00540020  RH  079%=      5-min Rain = 0
KBY1 111554Z 00012KT 05/02 A299 RMK A01 T00540021  RH  079%=      5-min Rain = 0
KBY1 111555Z 01014KT 06/02 A299 RMK A01 T00550021  RH  079%=      5-min Rain = 0
KBY1 111556Z 01012KT 06/02 A299 RMK A01 T00550020  RH  078%=      5-min Rain = 0
KBY1 111557Z 02012KT 06/02 A299 RMK A01 T00550021  RH  078%=      5-min Rain = 0
KBY1 111558Z 01008KT 06/02 A299 RMK A01 T00550021  RH  079%=      5-min Rain = 0
KBY1 111559Z 02011KT 06/02 A299 RMK A01 T00560022  RH  079%=      5-min Rain = 0
KBY1 111600Z 02013KT 06/02 A299 RMK A01 T00570022  RH  078%=      5-min Rain = 0
KBY1 111601Z 01009KT 06/02 A299 RMK A01 T00570021  RH  078%=      5-min Rain = 0
KBY1 111602Z 01009KT 06/02 A299 RMK A01 T00570022  RH  078%=      5-min Rain = 0
KBY1 111603Z 01010KT 06/02 A299 RMK A01 T00570022  RH  078%=      5-min Rain = 0
KBY1 111604Z 01008KT 06/02 A299 RMK A01 T00580022  RH  078%=      5-min Rain = 0
KBY1 111605Z 01008KT 06/02 A299 RMK A01 T00580022  RH  078%=      5-min Rain = 0
KBY1 111606Z 01011KT 06/02 A299 RMK A01 T00580022  RH  078%=      5-min Rain = 0
KBY1 111607Z 01011KT 06/02 A299 RMK A01 T00580021  RH  077%=      5-min Rain = 0
KBY1 111608Z 02011KT 06/02 A299 RMK A01 T00580021  RH  077%=      5-min Rain = 0
KBY1 111609Z 02009KT 06/02 A299 RMK A01 T00580022  RH  078%=      5-min Rain = 0
KBY1 111610Z 01008KT 06/02 A299 RMK A01 T00580022  RH  078%=      5-min Rain = 0
KBY1 111611Z 01010KT 06/02 A299 RMK A01 T00580022  RH  078%=      5-min Rain = 0
KBY1 111612Z 01010KT 06/02 A299 RMK A01 T00580022  RH  077%=      5-min Rain = 0
KBY1 111613Z 01010KT 06/02 A299 RMK A01 T00590022  RH  077%=      5-min Rain = 0
KBY1 111614Z 01009KT 06/02 A299 RMK A01 T00580021  RH  077%=      5-min Rain = 0
KBY1 111615Z 02008KT 06/02 A2991 RMK A01 T00590022  RH  077%=      5-min Rain = 0
KBY1 111616Z 01007KT 06/02 A2991 RMK A01 T00590023  RH  077%=      5-min Rain = 0
KBY1 111617Z 00010KT 06/02 A2991 RMK A01 T00600023  RH  077%=      5-min Rain = 0
KBY1 111618Z 01011KT 06/02 A2991 RMK A01 T00600023  RH  077%=      5-min Rain = 0
KBY1 111619Z 02011KT 06/02 A2991 RMK A01 T00600022  RH  077%=      5-min Rain = 0
KBY1 111620Z 01010KT 06/02 A2991 RMK A01 T00600021  RH  076%=      5-min Rain = 0
KBY1 111621Z 02011KT 06/02 A2991 RMK A01 T00590021  RH  077%=      5-min Rain = 0
KBY1 111622Z 02009KT 06/02 A2991 RMK A01 T00590021  RH  077%=      5-min Rain = 0
KBY1 111623Z 02011KT 06/02 A2991 RMK A01 T00580022  RH  077%=      5-min Rain = 0
KBY1 111624Z 02011KT 06/02 A2991 RMK A01 T00590022  RH  077%=      5-min Rain = 0
KBY1 111625Z 02010KT 06/02 A2991 RMK A01 T00590022  RH  077%=      5-min Rain = 0
KBY1 111626Z 02008KT 06/02 A2991 RMK A01 T00590022  RH  077%=      5-min Rain = 0
KBY1 111627Z 01009KT 06/02 A2991 RMK A01 T00590023  RH  077%=      5-min Rain = 0
KBY1 111628Z 02010KT 06/02 A2991 RMK A01 T00590022  RH  077%=      5-min Rain = 0
KBY1 111629Z 03010KT 06/02 A2991 RMK A01 T00590022  RH  077%=      5-min Rain = 0
KBY1 111630Z 02010KT 06/02 A2991 RMK A01 T00590023  RH  077%=      5-min Rain = 0
KBY1 111631Z 03008KT 06/02 A2991 RMK A01 T00590022  RH  077%=      5-min Rain = 0
KBY1 111632Z 02009KT 06/02 A2991 RMK A01 T00590023  RH  077%=      5-min Rain = 0
KBY1 111633Z 02011KT 06/02 A2991 RMK A01 T00590023  RH  077%=      5-min Rain = 0
KBY1 111634Z 03009KT 06/02 A2991 RMK A01 T00600023  RH  077%=      5-min Rain = 0
KBY1 111635Z 02008KT 06/02 A299 RMK A01 T00610024  RH  077%=      5-min Rain = 0
KBY1 111636Z 02009KT 06/02 A299 RMK A01 T00610024  RH  077%=      5-min Rain = 0
KBY1 111637Z 02007KT 06/02 A299 RMK A01 T00620024  RH  077%=      5-min Rain = 0
KBY1 111638Z 02008KT 06/03 A299 RMK A01 T00620025  RH  077%=      5-min Rain = 0
KBY1 111639Z 02009KT 06/03 A2991 RMK A01 T00630025  RH  077%=      5-min Rain = 0
KBY1 111640Z 01009KT 06/02 A2991 RMK A01 T00630024  RH  076%=      5-min Rain = 0
KBY1 111641Z 01009KT 06/02 A2991 RMK A01 T00620024  RH  076%=      5-min Rain = 0
KBY1 111642Z 01008KT 06/02 A2991 RMK A01 T00620024  RH  076%=      5-min Rain = 0
KBY1 111643Z 02011KT 06/02 A2991 RMK A01 T00630024  RH  077%=      5-min Rain = 0
KBY1 111644Z 02007KT 06/02 A2991 RMK A01 T00620024  RH  076%=      5-min Rain = 0
KBY1 111645Z 02008KT 06/03 A2991 RMK A01 T00630025  RH  077%=      5-min Rain = 0
KBY1 111646Z 00007KT 06/03 A2991 RMK A01 T00630025  RH  077%=      5-min Rain = 0
KBY1 111647Z 00010KT 06/03 A2991 RMK A01 T00640026  RH  076%=      5-min Rain = 0
KBY1 111648Z 00009KT 06/02 A2991 RMK A01 T00630024  RH  076%=      5-min Rain = 0
KBY1 111649Z 01011KT 06/03 A2991 RMK A01 T00630025  RH  076%=      5-min Rain = 0
KBY1 111650Z 00013KT 06/02 A2991 RMK A01 T00620023  RH  076%=      5-min Rain = 0
KBY1 111651Z 02011KT 06/02 A2991 RMK A01 T00610023  RH  077%=      5-min Rain = 0
KBY1 111652Z 03010KT 06/02 A2991 RMK A01 T00610024  RH  077%=      5-min Rain = 0
KBY1 111653Z 02009KT 06/02 A2991 RMK A01 T00620024  RH  077%=      5-min Rain = 0
KBY1 111654Z 02011KT 06/03 A2991 RMK A01 T00620025  RH  077%=      5-min Rain = 0
KBY1 111655Z 01011KT 06/02 A2991 RMK A01 T00630024  RH  076%=      5-min Rain = 0
KBY1 111656Z 01010KT 06/02 A2991 RMK A01 T00620024  RH  076%=      5-min Rain = 0
KBY1 111657Z 01008KT 06/02 A2991 RMK A01 T00620024  RH  077%=      5-min Rain = 0
KBY1 111658Z 01008KT 06/03 A2991 RMK A01 T00620025  RH  077%=      5-min Rain = 0
KBY1 111659Z 00009KT 06/03 A2991 RMK A01 T00630025  RH  077%=      5-min Rain = 0
KBY1 111700Z 36010KT 06/02 A2991 RMK A01 T00630024  RH  076%=      5-min Rain = 0
KBY1 111701Z 01009KT 06/02 A2991 RMK A01 T00630024  RH  076%=      5-min Rain = 0
KBY1 111702Z 02008KT 06/02 A2991 RMK A01 T00630024  RH  076%=      5-min Rain = 0
KBY1 111703Z 02012KT 06/03 A2991 RMK A01 T00640025  RH  076%=      5-min Rain = 0
KBY1 111704Z 01010KT 06/02 A2991 RMK A01 T00640024  RH  076%=      5-min Rain = 0
KBY1 111705Z 01009KT 06/02 A2991 RMK A01 T00630024  RH  076%=      5-min Rain = 0
KBY1 111706Z 36011KT 06/02 A2991 RMK A01 T00630024  RH  076%=      5-min Rain = 0
KBY1 111707Z 01010KT 06/02 A2991 RMK A01 T00630023  RH  076%=      5-min Rain = 0
KBY1 111708Z 35008G14KT 06/02 A2991 RMK A01 T00630024  RH  076%=      5-min Rain = 0
KBY1 111709Z 35008G13KT 06/02 A2991 RMK A01 T00630024  RH  076%=      5-min Rain = 0
KBY1 111710Z 35008KT 06/02 A2991 RMK A01 T00640024  RH  076%=      5-min Rain = 0
KBY1 111711Z 00007G12KT 06/02 A2991 RMK A01 T00640024  RH  076%=      5-min Rain = 0
KBY1 111712Z 35010KT 06/02 A2991 RMK A01 T00640024  RH  075%=      5-min Rain = 0
KBY1 111713Z 00009KT 06/02 A2991 RMK A01 T00640023  RH  075%=      5-min Rain = 0
KBY1 111714Z 01009KT 06/02 A2991 RMK A01 T00640023  RH  075%=      5-min Rain = 0
KBY1 111715Z 01012KT 06/02 A2991 RMK A01 T00630023  RH  076%=      5-min Rain = 0
KBY1 111716Z 01010KT 06/02 A2991 RMK A01 T00630024  RH  076%=      5-min Rain = 0
KBY1 111717Z 01009KT 06/02 A2991 RMK A01 T00630024  RH  076%=      5-min Rain = 0
KBY1 111718Z 01010KT 06/02 A2991 RMK A01 T00630023  RH  076%=      5-min Rain = 0
KBY1 111719Z 03010KT 06/02 A299 RMK A01 T00630024  RH  076%=      5-min Rain = 0
KBY1 111720Z 02009KT 06/02 A299 RMK A01 T00630024  RH  076%=      5-min Rain = 0
KBY1 111721Z 00009KT 06/02 A299 RMK A01 T00630024  RH  076%=      5-min Rain = 0
KBY1 111722Z 01009KT 06/02 A2991 RMK A01 T00630024  RH  076%=      5-min Rain = 0
KBY1 111723Z 00010KT 06/02 A2991 RMK A01 T00630024  RH  076%=      5-min Rain = 0
KBY1 111724Z 00010KT 06/02 A2991 RMK A01 T00630024  RH  076%=      5-min Rain = 0
KBY1 111725Z 00011KT 06/02 A2991 RMK A01 T00630024  RH  076%=      5-min Rain = 0
KBY1 111726Z 01010KT 06/02 A2991 RMK A01 T00620024  RH  076%=      5-min Rain = 0
KBY1 111727Z 01009KT 06/02 A2991 RMK A01 T00620024  RH  077%=      5-min Rain = 0
KBY1 111728Z 00010KT 06/03 A2991 RMK A01 T00630025  RH  077%=      5-min Rain = 0
KBY1 111729Z 36009KT 06/02 A2991 RMK A01 T00620024  RH  076%=      5-min Rain = 0
KBY1 111730Z 35011KT 06/03 A2991 RMK A01 T00620025  RH  077%=      5-min Rain = 0
KBY1 111731Z 36007KT 06/02 A2991 RMK A01 T00620024  RH  077%=      5-min Rain = 0
KBY1 111732Z 36009KT 06/03 A2991 RMK A01 T00630025  RH  077%=      5-min Rain = 0
KBY1 111733Z 35008KT 06/03 A2991 RMK A01 T00630025  RH  077%=      5-min Rain = 0
KBY1 111734Z 35007KT 06/03 A2991 RMK A01 T00630025  RH  077%=      5-min Rain = 0
KBY1 111735Z 34009KT 06/03 A2991 RMK A01 T00630025  RH  077%=      5-min Rain = 0
KBY1 111741Z 36008KT 06/02 A2991 RMK A01 T00610023  RH  077%=      5-min Rain = 0
KBY1 111742Z 35007KT 06/02 A2991 RMK A01 T00600023  RH  077%=      5-min Rain = 0
KBY1 111743Z 34008KT 06/02 A2991 RMK A01 T00600023  RH  077%=      5-min Rain = 0
KBY1 111744Z 34009KT 06/02 A299 RMK A01 T00590023  RH  077%=      5-min Rain = 0
KBY1 111745Z 34010KT 06/02 A2991 RMK A01 T00590023  RH  078%=      5-min Rain = 0
KBY1 111746Z 35008KT 06/02 A299 RMK A01 T00590023  RH  078%=      5-min Rain = 0
KBY1 111747Z 35008KT 06/02 A299 RMK A01 T00590023  RH  078%=      5-min Rain = 0
KBY1 111748Z 35008KT 06/02 A299 RMK A01 T00590023  RH  078%=      5-min Rain = 0
KBY1 111749Z 35009KT 06/02 A299 RMK A01 T00590023  RH  078%=      5-min Rain = 0
KBY1 111750Z 35008KT 06/02 A299 RMK A01 T00590023  RH  078%=      5-min Rain = 0
KBY1 111751Z 34006KT 06/02 A299 RMK A01 T00590023  RH  078%=      5-min Rain = 0
KBY1 111752Z 35007KT 06/02 A299 RMK A01 T00590024  RH  078%=      5-min Rain = 0
KBY1 111753Z 36006KT 06/02 A299 RMK A01 T00580023  RH  078%=      5-min Rain = 0
KBY1 111754Z 35004KT 06/02 A299 RMK A01 T00590024  RH  078%=      5-min Rain = 0
KBY1 111755Z 36006KT 06/03 A299 RMK A01 T00600025  RH  078%=      5-min Rain = 0
KBY1 111756Z 35007KT 06/02 A299 RMK A01 T00600024  RH  078%=      5-min Rain = 0
KBY1 111757Z 35008KT 06/02 A299 RMK A01 T00590024  RH  078%=      5-min Rain = 0
KBY1 111758Z 34008KT 06/02 A299 RMK A01 T00600024  RH  078%=      5-min Rain = 0
KBY1 111759Z 35009KT 06/03 A2989 RMK A01 T00600025  RH  078%=      5-min Rain = 0
KBY1 111800Z 35008KT 06/03 A2989 RMK A01 T00600025  RH  078%=      5-min Rain = 0
KBY1 111801Z 35009KT 06/02 A2989 RMK A01 T00600024  RH  078%=      5-min Rain = 0
KBY1 111802Z 36007KT 06/03 A2989 RMK A01 T00600025  RH  078%=      5-min Rain = 0
KBY1 111803Z 36008KT 06/03 A2989 RMK A01 T00600025  RH  078%=      5-min Rain = 0
KBY1 111804Z 36007KT 06/02 A2989 RMK A01 T00600024  RH  078%=      5-min Rain = 0
KBY1 111805Z 35006KT 06/03 A2988 RMK A01 T00600025  RH  078%=      5-min Rain = 0
KBY1 111806Z 35005KT 06/03 A2988 RMK A01 T00600025  RH  078%=      5-min Rain = 0
KBY1 111807Z 00005KT 06/03 A2988 RMK A01 T00600025  RH  078%=      5-min Rain = 0
KBY1 111808Z 35005KT 06/03 A2988 RMK A01 T00610026  RH  078%=      5-min Rain = 0
KBY1 111809Z 34005KT 06/03 A2988 RMK A01 T00610026  RH  078%=      5-min Rain = 0
KBY1 111810Z 35007KT 06/03 A2988 RMK A01 T00610026  RH  078%=      5-min Rain = 0
KBY1 111811Z 35009KT 06/03 A2988 RMK A01 T00610026  RH  078%=      5-min Rain = 0
KBY1 111812Z 35007KT 06/03 A2988 RMK A01 T00610026  RH  078%=      5-min Rain = 0
KBY1 111813Z 35008KT 06/03 A2988 RMK A01 T00620027  RH  078%=      5-min Rain = 0
KBY1 111814Z 34005KT 06/03 A2988 RMK A01 T00620027  RH  079%=      5-min Rain = 0
KBY1 111815Z 34007KT 06/03 A2988 RMK A01 T00620028  RH  079%=      5-min Rain = 0
KBY1 111816Z 35006KT 06/03 A2988 RMK A01 T00620028  RH  079%=      5-min Rain = 0
KBY1 111817Z 34006KT 06/03 A2988 RMK A01 T00620028  RH  079%=      5-min Rain = 0
KBY1 111818Z 35009KT 06/03 A2988 RMK A01 T00630028  RH  079%=      5-min Rain = 0
KBY1 111819Z 35008KT 06/03 A2988 RMK A01 T00630028  RH  079%=      5-min Rain = 0
KBY1 111820Z 34007KT 06/03 A2988 RMK A01 T00630029  RH  079%=      5-min Rain = 0
KBY1 111821Z 34007KT 06/03 A2988 RMK A01 T00620029  RH  079%=      5-min Rain = 0
KBY1 111822Z 33007KT 06/03 A2988 RMK A01 T00630029  RH  079%=      5-min Rain = 0
KBY1 111823Z 35007KT 06/03 A2988 RMK A01 T00630028  RH  079%=      5-min Rain = 0
KBY1 111824Z 34008KT 06/03 A2988 RMK A01 T00630028  RH  079%=      5-min Rain = 0
KBY1 111825Z 35010KT 06/03 A2988 RMK A01 T00620028  RH  078%=      5-min Rain = 0
KBY1 111826Z 35009KT 06/03 A2988 RMK A01 T00620027  RH  078%=      5-min Rain = 0
KBY1 111827Z 35007KT 06/03 A2988 RMK A01 T00610027  RH  079%=      5-min Rain = 0
KBY1 111828Z 35009KT 06/03 A2988 RMK A01 T00610027  RH  079%=      5-min Rain = 0
KBY1 111829Z 33008KT 06/03 A2988 RMK A01 T00610027  RH  079%=      5-min Rain = 0
KBY1 111830Z 34006KT 06/03 A2988 RMK A01 T00610027  RH  079%=      5-min Rain = 0
KBY1 111831Z 34010KT 06/03 A2988 RMK A01 T00610027  RH  079%=      5-min Rain = 0
KBY1 111832Z 34011KT 06/03 A2988 RMK A01 T00610025  RH  078%=      5-min Rain = 0
KBY1 111833Z 34010KT 06/03 A2988 RMK A01 T00600025  RH  078%=      5-min Rain = 0
KBY1 111834Z 35010KT 06/02 A2987 RMK A01 T00600024  RH  078%=      5-min Rain = 0
KBY1 111835Z 35008KT 06/02 A2987 RMK A01 T00590023  RH  078%=      5-min Rain = 0
KBY1 111836Z 33010KT 06/02 A2988 RMK A01 T00590024  RH  078%=      5-min Rain = 0
KBY1 111837Z 34009KT 06/02 A2988 RMK A01 T00590024  RH  078%=      5-min Rain = 0
KBY1 111838Z 33007KT 06/02 A2988 RMK A01 T00590024  RH  078%=      5-min Rain = 0
KBY1 111839Z 33008KT 06/02 A2988 RMK A01 T00590024  RH  078%=      5-min Rain = 0
KBY1 111840Z 33007KT 06/02 A2988 RMK A01 T00590024  RH  078%=      5-min Rain = 0
KBY1 111841Z 32007KT 06/02 A2988 RMK A01 T00580023  RH  078%=      5-min Rain = 0
KBY1 111842Z 33010KT 06/02 A2988 RMK A01 T00580023  RH  078%=      5-min Rain = 0
KBY1 111843Z 33008KT 06/02 A2988 RMK A01 T00570021  RH  078%=      5-min Rain = 0
KBY1 111844Z 33006KT 06/02 A2988 RMK A01 T00570021  RH  078%=      5-min Rain = 0
KBY1 111845Z 32009KT 06/02 A2988 RMK A01 T00560022  RH  078%=      5-min Rain = 0
KBY1 111846Z 33009KT 06/02 A2988 RMK A01 T00560021  RH  078%=      5-min Rain = 0
KBY1 111847Z 33007KT 06/02 A2988 RMK A01 T00550021  RH  079%=      5-min Rain = 0
KBY1 111848Z 34011KT 06/02 A2988 RMK A01 T00550022  RH  079%=      5-min Rain = 0
KBY1 111849Z 33011KT 06/02 A2988 RMK A01 T00550021  RH  079%=      5-min Rain = 0
KBY1 111850Z 34010KT 05/02 A2988 RMK A01 T00540021  RH  079%=      5-min Rain = 0
KBY1 111851Z 34010KT 05/02 A2988 RMK A01 T00540021  RH  079%=      5-min Rain = 0
KBY1 111852Z 34009KT 05/02 A2988 RMK A01 T00540021  RH  080%=      5-min Rain = 0
KBY1 111853Z 34008KT 05/02 A2988 RMK A01 T00530021  RH  080%=      5-min Rain = 0
KBY1 111854Z 34007KT 05/02 A2988 RMK A01 T00530022  RH  081%=      5-min Rain = 0
KBY1 111855Z 34005KT 05/02 A2988 RMK A01 T00530023  RH  081%=      5-min Rain = 0
KBY1 111856Z 34006KT 05/02 A2988 RMK A01 T00530023  RH  081%=      5-min Rain = 0
KBY1 111857Z 34005KT 05/02 A2988 RMK A01 T00530024  RH  082%=      5-min Rain = 0
KBY1 111858Z 34005KT 05/03 A2988 RMK A01 T00530025  RH  082%=      5-min Rain = 0
KBY1 111859Z 34006KT 05/03 A2988 RMK A01 T00520025  RH  082%=      5-min Rain = 0
KBY1 111900Z 34005KT 05/03 A2988 RMK A01 T00520025  RH  083%=      5-min Rain = 0
KBY1 111901Z 35008KT 05/03 A2987 RMK A01 T00520026  RH  083%=      5-min Rain = 0
KBY1 111902Z 34009KT 05/03 A2987 RMK A01 T00520026  RH  083%=      5-min Rain = 0
KBY1 111903Z 34008KT 05/03 A2988 RMK A01 T00510027  RH  084%=      5-min Rain = 0
KBY1 111904Z 33008KT 05/03 A2988 RMK A01 T00510027  RH  084%=      5-min Rain = 0
KBY1 111905Z 33007KT 05/03 A2988 RMK A01 T00510028  RH  085%=      5-min Rain = 0
KBY1 111906Z 33007KT 05/03 A2988 RMK A01 T00500028  RH  085%=      5-min Rain = 0
KBY1 111907Z 31006KT 05/03 A2988 RMK A01 T00510029  RH  086%=      5-min Rain = 0
KBY1 111908Z 32007KT 05/03 A2988 RMK A01 T00500029  RH  086%=      5-min Rain = 0
KBY1 111909Z 31004KT 05/03 A2988 RMK A01 T00500030  RH  087%=      5-min Rain = 0
KBY1 111910Z 31005KT 05/03 A2988 RMK A01 T00500031  RH  087%=      5-min Rain = 0
KBY1 111911Z 31006KT 05/03 A2988 RMK A01 T00500031  RH  088%=      5-min Rain = 0
KBY1 111912Z 30007KT 05/03 A2988 RMK A01 T00500031  RH  087%=      5-min Rain = 0
KBY1 111913Z 30005KT 05/03 A2988 RMK A01 T00500030  RH  087%=      5-min Rain = 0
KBY1 111914Z 30004KT 05/03 A2988 RMK A01 T00490031  RH  088%=      5-min Rain = 0
KBY1 111915Z 29004KT 05/03 A2988 RMK A01 T00490031  RH  088%=      5-min Rain = 0
KBY1 111916Z 28004KT 05/03 A2988 RMK A01 T00490032  RH  089%=      5-min Rain = 0
KBY1 111917Z 29005KT 05/03 A2988 RMK A01 T00490032  RH  089%=      5-min Rain = 0
KBY1 111918Z 30005KT 05/03 A2987 RMK A01 T00490031  RH  089%=      5-min Rain = 0
KBY1 111919Z 29004KT 05/03 A2987 RMK A01 T00490033  RH  089%=      5-min Rain = 0
KBY1 111920Z 31007G13KT 05/03 A2987 RMK A01 T00490033  RH  089%=      5-min Rain = 0
KBY1 111921Z 33009KT 05/03 A2987 RMK A01 T00490032  RH  089%=      5-min Rain = 0
KBY1 111922Z 34008KT 05/03 A2987 RMK A01 T00500032  RH  088%=      5-min Rain = 0
KBY1 111923Z 35009KT 05/03 A2987 RMK A01 T00510032  RH  087%=      5-min Rain = 0
KBY1 111924Z 34010KT 05/03 A2987 RMK A01 T00520032  RH  087%=      5-min Rain = 0
KBY1 111925Z 34008KT 05/03 A2987 RMK A01 T00520031  RH  087%=      5-min Rain = 0
KBY1 111926Z 34008KT 05/03 A2987 RMK A01 T00530032  RH  087%=      5-min Rain = 0
KBY1 111927Z 33006KT 05/03 A2987 RMK A01 T00530032  RH  086%=      5-min Rain = 0
KBY1 111928Z 33008KT 05/03 A2988 RMK A01 T00530032  RH  087%=      5-min Rain = 0
KBY1 111929Z 33007KT 05/03 A2988 RMK A01 T00520031  RH  086%=      5-min Rain = 0
KBY1 111930Z 33007KT 05/03 A2988 RMK A01 T00530031  RH  086%=      5-min Rain = 0
KBY1 111931Z 33007KT 05/03 A2988 RMK A01 T00520031  RH  086%=      5-min Rain = 0
KBY1 111932Z 34007KT 05/03 A2988 RMK A01 T00530031  RH  086%=      5-min Rain = 0
KBY1 111933Z 33005KT 05/03 A2988 RMK A01 T00530031  RH  086%=      5-min Rain = 0
KBY1 111934Z 34005G10KT 05/03 A2988 RMK A01 T00530032  RH  086%=      5-min Rain = 0
KBY1 111935Z 33008KT 05/03 A2988 RMK A01 T00530032  RH  086%=      5-min Rain = 0
KBY1 111936Z 33010KT 05/03 A2988 RMK A01 T00530031  RH  085%=      5-min Rain = 0
KBY1 111937Z 33009KT 05/03 A2988 RMK A01 T00530030  RH  085%=      5-min Rain = 0
KBY1 111938Z 34009KT 05/03 A2988 RMK A01 T00530031  RH  086%=      5-min Rain = 0
KBY1 111939Z 33009KT 05/03 A2988 RMK A01 T00520031  RH  086%=      5-min Rain = 0
KBY1 111940Z 33011KT 05/03 A2988 RMK A01 T00520031  RH  086%=      5-min Rain = 0
KBY1 111941Z 33011KT 05/03 A2987 RMK A01 T00510031  RH  086%=      5-min Rain = 0
KBY1 111942Z 34008KT 05/03 A2987 RMK A01 T00510031  RH  087%=      5-min Rain = 0
KBY1 111943Z 34014KT 05/03 A2987 RMK A01 T00510032  RH  087%=      5-min Rain = 0
KBY1 111944Z 34012KT 05/03 A2987 RMK A01 T00500030  RH  087%=      5-min Rain = 0
KBY1 111945Z 34013KT 05/03 A2987 RMK A01 T00490030  RH  087%=      5-min Rain = 0
KBY1 111946Z 34012KT 05/03 A2987 RMK A01 T00490030  RH  087%=      5-min Rain = 0
KBY1 111947Z 34011KT 05/03 A2987 RMK A01 T00480030  RH  088%=      5-min Rain = 0
KBY1 111948Z 34008KT 05/03 A2987 RMK A01 T00480031  RH  088%=      5-min Rain = 0
KBY1 111949Z 34008KT 05/03 A2987 RMK A01 T00490032  RH  089%=      5-min Rain = 0
KBY1 111950Z 34011KT 05/03 A2987 RMK A01 T00480033  RH  090%=      5-min Rain = 0
KBY1 111951Z 34009KT 05/03 A2987 RMK A01 T00480033  RH  090%=      5-min Rain = 0
KBY1 111952Z 35008KT 05/03 A2987 RMK A01 T00490034  RH  090%=      5-min Rain = 0
KBY1 111953Z 34008KT 05/03 A2987 RMK A01 T00480034  RH  091%=      5-min Rain = 0
KBY1 111954Z 34010KT 05/03 A2986 RMK A01 T00480034  RH  091%=      5-min Rain = 0
KBY1 111955Z 35008KT 05/03 A2986 RMK A01 T00480034  RH  091%=      5-min Rain = 0
KBY1 111956Z 35010KT 05/04 A2986 RMK A01 T00490035  RH  091%=      5-min Rain = 0
KBY1 111957Z 34009KT 05/04 A2986 RMK A01 T00490035  RH  091%=      5-min Rain = 0
KBY1 111958Z 35009KT 05/04 A2987 RMK A01 T00490035  RH  091%=      5-min Rain = 0
KBY1 111959Z 34007KT 05/04 A2987 RMK A01 T00490036  RH  091%=      5-min Rain = 0
KBY1 112000Z 34009KT 05/04 A2987 RMK A01 T00500037  RH  092%=      5-min Rain = 0
KBY1 112001Z 34008KT 05/04 A2987 RMK A01 T00500037  RH  092%=      5-min Rain = 0
KBY1 112002Z 35007KT 05/04 A2987 RMK A01 T00500037  RH  091%=      5-min Rain = 0
KBY1 112003Z 34006KT 05/04 A2987 RMK A01 T00500038  RH  092%=      5-min Rain = 0
KBY1 112004Z 33006KT 05/04 A2987 RMK A01 T00500038  RH  092%=      5-min Rain = 0
KBY1 112005Z 34008KT 05/04 A2987 RMK A01 T00500039  RH  092%=      5-min Rain = 0
KBY1 112006Z 34010KT 05/04 A2987 RMK A01 T00500038  RH  092%=      5-min Rain = 0
KBY1 112007Z 36009KT 05/04 A2987 RMK A01 T00500036  RH  091%=      5-min Rain = 0
KBY1 112008Z 35010KT 05/04 A2987 RMK A01 T00490035  RH  090%=      5-min Rain = 0
KBY1 112009Z 35008KT 05/04 A2987 RMK A01 T00490035  RH  091%=      5-min Rain = 0
KBY1 112010Z 35007KT 05/04 A2987 RMK A01 T00490035  RH  091%=      5-min Rain = 0
KBY1 112011Z 36007KT 05/04 A2987 RMK A01 T00490036  RH  091%=      5-min Rain = 0
KBY1 112012Z 36006KT 05/04 A2987 RMK A01 T00490037  RH  092%=      5-min Rain = 0
KBY1 112013Z 35007KT 05/04 A2987 RMK A01 T00490037  RH  092%=      5-min Rain = 0
KBY1 112014Z 34007KT 05/04 A2987 RMK A01 T00490037  RH  092%=      5-min Rain = 0
KBY1 112015Z 34008KT 05/04 A2987 RMK A01 T00490037  RH  092%=      5-min Rain = 0
KBY1 112016Z 34009KT 05/04 A2987 RMK A01 T00490037  RH  092%=      5-min Rain = 0
KBY1 112017Z 35013KT 05/04 A2987 RMK A01 T00490037  RH  092%=      5-min Rain = 0
KBY1 112018Z 36010KT 05/03 A2987 RMK A01 T00480034  RH  090%=      5-min Rain = 0
KBY1 112019Z 00012KT 05/03 A2988 RMK A01 T00480033  RH  090%=      5-min Rain = 0
KBY1 112020Z 35009KT 05/03 A2988 RMK A01 T00480032  RH  089%=      5-min Rain = 0
KBY1 112021Z 35010KT 05/03 A2988 RMK A01 T00480032  RH  090%=      5-min Rain = 0
KBY1 112022Z 36008G14KT 05/03 A2988 RMK A01 T00480032  RH  090%=      5-min Rain = 0
KBY1 112023Z 01012KT 05/03 A2988 RMK A01 T00480031  RH  089%=      5-min Rain = 0
KBY1 112024Z 01010KT 05/03 A2988 RMK A01 T00480030  RH  088%=      5-min Rain = 0
KBY1 112025Z 00008KT 05/03 A2988 RMK A01 T00480030  RH  088%=      5-min Rain = 0
KBY1 112026Z 01010KT 05/03 A2988 RMK A01 T00470030  RH  088%=      5-min Rain = 0
KBY1 112027Z 36009KT 05/03 A2988 RMK A01 T00480029  RH  088%=      5-min Rain = 0
KBY1 112028Z 35009KT 05/03 A2988 RMK A01 T00470029  RH  088%=      5-min Rain = 0
KBY1 112029Z 35010KT 05/03 A2988 RMK A01 T00480029  RH  088%=      5-min Rain = 0
KBY1 112030Z 35009KT 05/03 A2988 RMK A01 T00470029  RH  088%=      5-min Rain = 0
KBY1 112031Z 00010KT 05/03 A2988 RMK A01 T00470029  RH  088%=      5-min Rain = 0
KBY1 112032Z 35009KT 05/03 A2988 RMK A01 T00480029  RH  087%=      5-min Rain = 0
KBY1 112033Z 00010KT 05/03 A2988 RMK A01 T00470028  RH  087%=      5-min Rain = 0
KBY1 112034Z 00009KT 05/03 A2988 RMK A01 T00470027  RH  087%=      5-min Rain = 0
KBY1 112035Z 35009G14KT 05/03 A2988 RMK A01 T00470028  RH  087%=      5-min Rain = 0
KBY1 112036Z 01012G17KT 05/03 A2988 RMK A01 T00470027  RH  087%=      5-min Rain = 0
KBY1 112037Z 00010KT 05/03 A2988 RMK A01 T00470027  RH  087%=      5-min Rain = 0
KBY1 112038Z 00011KT 05/03 A2988 RMK A01 T00470026  RH  087%=      5-min Rain = 0
KBY1 112039Z 36013KT 05/03 A2988 RMK A01 T00470026  RH  087%=      5-min Rain = 0
KBY1 112040Z 01013KT 05/03 A2988 RMK A01 T00470026  RH  086%=      5-min Rain = 0
KBY1 112041Z 00012KT 05/03 A2988 RMK A01 T00470026  RH  086%=      5-min Rain = 0
KBY1 112042Z 36010KT 05/03 A2988 RMK A01 T00470025  RH  086%=      5-min Rain = 0
KBY1 112043Z 35012KT 05/03 A2988 RMK A01 T00470026  RH  087%=      5-min Rain = 0
KBY1 112044Z 00009KT 05/03 A2988 RMK A01 T00460026  RH  087%=      5-min Rain = 0
KBY1 112045Z 01008KT 05/03 A2988 RMK A01 T00470028  RH  087%=      5-min Rain = 0
KBY1 112046Z 01010KT 05/03 A2988 RMK A01 T00470027  RH  087%=      5-min Rain = 0
KBY1 112047Z 01007KT 05/03 A2988 RMK A01 T00470027  RH  087%=      5-min Rain = 0
KBY1 112048Z 01008KT 05/03 A2988 RMK A01 T00480028  RH  087%=      5-min Rain = 0
KBY1 112049Z 00008KT 05/03 A2988 RMK A01 T00480028  RH  087%=      5-min Rain = 0
KBY1 112050Z 00008KT 05/03 A2988 RMK A01 T00480028  RH  087%=      5-min Rain = 0
KBY1 112051Z 01011KT 05/03 A2988 RMK A01 T00480027  RH  087%=      5-min Rain = 0
KBY1 112052Z 00012G17KT 05/03 A2988 RMK A01 T00480027  RH  086%=      5-min Rain = 0
KBY1 112053Z 01014KT 05/03 A2988 RMK A01 T00480025  RH  085%=      5-min Rain = 0
KBY1 112054Z 01011G16KT 05/02 A2988 RMK A01 T00480024  RH  084%=      5-min Rain = 0
KBY1 112055Z 01013KT 05/02 A2988 RMK A01 T00480024  RH  085%=      5-min Rain = 0
KBY1 112056Z 01012KT 05/02 A2988 RMK A01 T00480024  RH  084%=      5-min Rain = 0
KBY1 112057Z 00011KT 05/02 A2988 RMK A01 T00480024  RH  084%=      5-min Rain = 0
KBY1 112058Z 01009KT 05/03 A2988 RMK A01 T00480025  RH  085%=      5-min Rain = 0
KBY1 112059Z 00008KT 05/03 A2988 RMK A01 T00490026  RH  085%=      5-min Rain = 0
KBY1 112100Z 00007KT 05/03 A2988 RMK A01 T00480026  RH  086%=      5-min Rain = 0
KBY1 112101Z 01011KT 05/03 A2988 RMK A01 T00490027  RH  086%=      5-min Rain = 0
KBY1 112102Z 01012KT 05/03 A2988 RMK A01 T00490025  RH  085%=      5-min Rain = 0
KBY1 112103Z 00009KT 05/02 A2988 RMK A01 T00480024  RH  084%=      5-min Rain = 0
KBY1 112104Z 35009KT 05/03 A2988 RMK A01 T00480025  RH  085%=      5-min Rain = 0
KBY1 112105Z 36008KT 05/03 A2988 RMK A01 T00480025  RH  085%=      5-min Rain = 0
KBY1 112106Z 00011KT 05/03 A2988 RMK A01 T00480025  RH  085%=      5-min Rain = 0
KBY1 112107Z 00008KT 05/02 A2988 RMK A01 T00480024  RH  085%=      5-min Rain = 0
KBY1 112108Z 00006KT 05/03 A2988 RMK A01 T00490025  RH  085%=      5-min Rain = 0
KBY1 112109Z 36003KT 05/03 A2988 RMK A01 T00480026  RH  086%=      5-min Rain = 0
KBY1 112110Z 36005KT 05/03 A2988 RMK A01 T00480027  RH  086%=      5-min Rain = 0
KBY1 112111Z 35007KT 05/03 A2988 RMK A01 T00490027  RH  086%=      5-min Rain = 0
KBY1 112112Z 35006KT 05/03 A2988 RMK A01 T00480027  RH  086%=      5-min Rain = 0
KBY1 112113Z 02007G12KT 05/03 A2988 RMK A01 T00490027  RH  086%=      5-min Rain = 0
KBY1 112114Z 01011KT 05/03 A2988 RMK A01 T00480026  RH  086%=      5-min Rain = 0
KBY1 112115Z 00012KT 05/03 A2988 RMK A01 T00480026  RH  085%=      5-min Rain = 0
KBY1 112116Z 00012KT 05/03 A2988 RMK A01 T00480025  RH  085%=      5-min Rain = 0
KBY1 112117Z 35010KT 05/02 A2988 RMK A01 T00470024  RH  085%=      5-min Rain = 0
KBY1 112118Z 35009KT 05/03 A2988 RMK A01 T00470026  RH  086%=      5-min Rain = 0
KBY1 112119Z 34008KT 05/03 A2988 RMK A01 T00480028  RH  087%=      5-min Rain = 0
KBY1 112120Z 00008KT 05/03 A2988 RMK A01 T00470028  RH  087%=      5-min Rain = 0
KBY1 112121Z 35008KT 05/03 A2988 RMK A01 T00470028  RH  088%=      5-min Rain = 0
KBY1 112122Z 35006KT 05/03 A2988 RMK A01 T00470029  RH  088%=      5-min Rain = 0
KBY1 112123Z 35006KT 05/03 A2988 RMK A01 T00470030  RH  088%=      5-min Rain = 0
KBY1 112124Z 35012KT 05/03 A2988 RMK A01 T00470029  RH  088%=      5-min Rain = 0
KBY1 112125Z 36008KT 05/03 A2989 RMK A01 T00470027  RH  087%=      5-min Rain = 0
KBY1 112126Z 35007KT 05/03 A2989 RMK A01 T00470027  RH  087%=      5-min Rain = 0
KBY1 112127Z 34009G14KT 05/03 A2989 RMK A01 T00470027  RH  087%=      5-min Rain = 0
KBY1 112128Z 35010KT 05/03 A2989 RMK A01 T00470027  RH  087%=      5-min Rain = 0
KBY1 112129Z 00008KT 05/03 A2989 RMK A01 T00470026  RH  086%=      5-min Rain = 0
KBY1 112130Z 00009KT 05/03 A2989 RMK A01 T00460025  RH  086%=      5-min Rain = 0
KBY1 112131Z 36007KT 05/03 A2989 RMK A01 T00460025  RH  086%=      5-min Rain = 0
KBY1 112132Z 36008KT 05/03 A2989 RMK A01 T00470026  RH  087%=      5-min Rain = 0
KBY1 112133Z 36008KT 05/03 A2989 RMK A01 T00470027  RH  087%=      5-min Rain = 0
KBY1 112134Z 00006KT 05/03 A2989 RMK A01 T00460027  RH  087%=      5-min Rain = 0
KBY1 112135Z 01007G12KT 05/03 A2989 RMK A01 T00460027  RH  088%=      5-min Rain = 0
KBY1 112136Z 01010KT 05/03 A2989 RMK A01 T00460026  RH  087%=      5-min Rain = 0
KBY1 112137Z 35008G14KT 05/03 A2989 RMK A01 T00460025  RH  087%=      5-min Rain = 0
KBY1 112138Z 36009KT 05/03 A2989 RMK A01 T00450025  RH  087%=      5-min Rain = 0
KBY1 112139Z 36009KT 05/03 A2989 RMK A01 T00450025  RH  087%=      5-min Rain = 0
KBY1 112140Z 36008KT 05/03 A299 RMK A01 T00450026  RH  087%=      5-min Rain = 0
KBY1 112141Z 35006KT 04/03 A299 RMK A01 T00440026  RH  088%=      5-min Rain = 0
KBY1 112142Z 35006G11KT 04/03 A299 RMK A01 T00440027  RH  089%=      5-min Rain = 0
KBY1 112143Z 35009KT 04/03 A299 RMK A01 T00440027  RH  089%=      5-min Rain = 0
KBY1 112144Z 35007KT 04/03 A299 RMK A01 T00440027  RH  089%=      5-min Rain = 0
KBY1 112145Z 35010KT 04/03 A299 RMK A01 T00430026  RH  088%=      5-min Rain = 0
KBY1 112146Z 01006KT 04/03 A299 RMK A01 T00430025  RH  088%=      5-min Rain = 0
KBY1 112147Z 01007KT 04/03 A299 RMK A01 T00430025  RH  088%=      5-min Rain = 0
KBY1 112148Z 36007KT 04/03 A299 RMK A01 T00430025  RH  088%=      5-min Rain = 0
KBY1 112149Z 36009KT 04/02 A299 RMK A01 T00430024  RH  087%=      5-min Rain = 0
KBY1 112150Z 35007KT 04/02 A299 RMK A01 T00430023  RH  087%=      5-min Rain = 0
KBY1 112151Z 36009KT 04/02 A299 RMK A01 T00430023  RH  087%=      5-min Rain = 0
KBY1 112152Z 35007KT 04/02 A299 RMK A01 T00430023  RH  087%=      5-min Rain = 0
KBY1 112153Z 36007KT 04/02 A299 RMK A01 T00430024  RH  088%=      5-min Rain = 0
KBY1 112154Z 35007KT 04/02 A299 RMK A01 T00420023  RH  087%=      5-min Rain = 0
KBY1 112155Z 00007KT 04/02 A299 RMK A01 T00420023  RH  087%=      5-min Rain = 0
KBY1 112156Z 00008KT 04/02 A299 RMK A01 T00430024  RH  088%=      5-min Rain = 0
KBY1 112157Z 35005KT 04/02 A299 RMK A01 T00430024  RH  088%=      5-min Rain = 0
KBY1 112158Z 35005KT 04/03 A299 RMK A01 T00430025  RH  088%=      5-min Rain = 0
KBY1 112159Z 36006KT 04/03 A299 RMK A01 T00430025  RH  088%=      5-min Rain = 0
KBY1 112200Z 36008KT 04/02 A299 RMK A01 T00430024  RH  088%=      5-min Rain = 0
KBY1 112201Z 35009KT 04/02 A299 RMK A01 T00430023  RH  087%=      5-min Rain = 0
KBY1 112202Z 35011KT 04/02 A299 RMK A01 T00430022  RH  086%=      5-min Rain = 0
KBY1 112203Z 35012KT 04/02 A299 RMK A01 T00430021  RH  086%=      5-min Rain = 0
KBY1 112204Z 34010KT 04/02 A299 RMK A01 T00430020  RH  085%=      5-min Rain = 0
KBY1 112205Z 34009KT 04/02 A299 RMK A01 T00440020  RH  085%=      5-min Rain = 0
KBY1 112206Z 34005KT 04/02 A299 RMK A01 T00440021  RH  085%=      5-min Rain = 0
KBY1 112207Z 33005KT 04/02 A299 RMK A01 T00440022  RH  086%=      5-min Rain = 0
KBY1 112208Z 34005G10KT 04/02 A2991 RMK A01 T00440023  RH  086%=      5-min Rain = 0
KBY1 112209Z 34006G12KT 04/02 A2991 RMK A01 T00440023  RH  087%=      5-min Rain = 0
KBY1 112210Z 32007KT 04/02 A2991 RMK A01 T00440024  RH  087%=      5-min Rain = 0
KBY1 112211Z 33008KT 04/02 A2991 RMK A01 T00440023  RH  086%=      5-min Rain = 0
KBY1 112212Z 33006KT 04/02 A2991 RMK A01 T00440023  RH  086%=      5-min Rain = 0
KBY1 112213Z 33005KT 04/02 A2991 RMK A01 T00440023  RH  086%=      5-min Rain = 0
KBY1 112214Z 34007KT 04/02 A2991 RMK A01 T00440023  RH  086%=      5-min Rain = 0
KBY1 112215Z 35010KT 04/02 A2991 RMK A01 T00440023  RH  086%=      5-min Rain = 0
KBY1 112216Z 34009KT 04/02 A2991 RMK A01 T00430021  RH  086%=      5-min Rain = 0
KBY1 112217Z 34009KT 04/02 A2991 RMK A01 T00440022  RH  086%=      5-min Rain = 0
KBY1 112218Z 35008KT 04/02 A2991 RMK A01 T00430022  RH  086%=      5-min Rain = 0
KBY1 112219Z 34010KT 04/02 A2991 RMK A01 T00430021  RH  086%=      5-min Rain = 0
KBY1 112220Z 34009KT 04/02 A2991 RMK A01 T00430021  RH  086%=      5-min Rain = 0
KBY1 112221Z 34010KT 04/02 A2991 RMK A01 T00430021  RH  085%=      5-min Rain = 0
KBY1 112222Z 34010KT 04/02 A2991 RMK A01 T00430020  RH  085%=      5-min Rain = 0
KBY1 112223Z 35009KT 04/02 A2991 RMK A01 T00430020  RH  085%=      5-min Rain = 0
KBY1 112224Z 36009G14KT 04/02 A2991 RMK A01 T00430020  RH  085%=      5-min Rain = 0
KBY1 112225Z 35013KT 04/02 A2991 RMK A01 T00420019  RH  085%=      5-min Rain = 0
KBY1 112226Z 36013KT 04/02 A2991 RMK A01 T00420018  RH  084%=      5-min Rain = 0
KBY1 112227Z 35011KT 04/02 A2991 RMK A01 T00420017  RH  084%=      5-min Rain = 0
KBY1 112228Z 36010KT 04/02 A2991 RMK A01 T00420018  RH  084%=      5-min Rain = 0
KBY1 112229Z 35008KT 04/02 A2991 RMK A01 T00420018  RH  084%=      5-min Rain = 0
KBY1 112230Z 35009KT 04/02 A2991 RMK A01 T00420019  RH  085%=      5-min Rain = 0
KBY1 112231Z 36009KT 04/02 A2991 RMK A01 T00420020  RH  085%=      5-min Rain = 0
KBY1 112232Z 36008KT 04/02 A2991 RMK A01 T00420020  RH  085%=      5-min Rain = 0
KBY1 112233Z 01008KT 04/02 A2991 RMK A01 T00420019  RH  085%=      5-min Rain = 0
KBY1 112234Z 00011KT 04/02 A2991 RMK A01 T00420018  RH  085%=      5-min Rain = 0
KBY1 112235Z 00009G15KT 04/02 A2991 RMK A01 T00420017  RH  084%=      5-min Rain = 0
KBY1 112236Z 36010G15KT 04/02 A2991 RMK A01 T00420017  RH  084%=      5-min Rain = 0
KBY1 112237Z 01011KT 04/02 A2991 RMK A01 T00420016  RH  083%=      5-min Rain = 0
KBY1 112238Z 00009KT 04/02 A2991 RMK A01 T00420016  RH  083%=      5-min Rain = 0
KBY1 112239Z 00009KT 04/02 A2991 RMK A01 T00410016  RH  083%=      5-min Rain = 0
KBY1 112240Z 01011KT 04/02 A2991 RMK A01 T00410016  RH  084%=      5-min Rain = 0
KBY1 112241Z 00008KT 04/02 A2991 RMK A01 T00420016  RH  083%=      5-min Rain = 0
KBY1 112242Z 35009G14KT 04/02 A2991 RMK A01 T00410016  RH  084%=      5-min Rain = 0
KBY1 112243Z 36011KT 04/02 A2991 RMK A01 T00410016  RH  083%=      5-min Rain = 0
KBY1 112244Z 36008KT 04/02 A2991 RMK A01 T00410016  RH  083%=      5-min Rain = 0
KBY1 112245Z 36007KT 04/02 A2991 RMK A01 T00420017  RH  084%=      5-min Rain = 0
KBY1 112246Z 00008KT 04/02 A2991 RMK A01 T00420017  RH  084%=      5-min Rain = 0
KBY1 112247Z 34008KT 04/02 A2991 RMK A01 T00420016  RH  084%=      5-min Rain = 0
KBY1 112248Z 35010KT 04/02 A2991 RMK A01 T00420016  RH  084%=      5-min Rain = 0
KBY1 112249Z 36010KT 04/02 A2991 RMK A01 T00420016  RH  083%=      5-min Rain = 0
KBY1 112250Z 00009KT 04/02 A2991 RMK A01 T00420016  RH  084%=      5-min Rain = 0
KBY1 112251Z 01011G18KT 04/02 A2991 RMK A01 T00410016  RH  084%=      5-min Rain = 0
KBY1 112252Z 00011KT 04/02 A2991 RMK A01 T00410016  RH  083%=      5-min Rain = 0
KBY1 112253Z 01008KT 04/02 A2991 RMK A01 T00420016  RH  083%=      5-min Rain = 0
KBY1 112254Z 01007KT 04/02 A2991 RMK A01 T00410016  RH  084%=      5-min Rain = 0
KBY1 112255Z 00008KT 04/02 A2991 RMK A01 T00410017  RH  084%=      5-min Rain = 0
KBY1 112256Z 36008KT 04/02 A2991 RMK A01 T00410017  RH  084%=      5-min Rain = 0
KBY1 112257Z 36008KT 04/02 A2991 RMK A01 T00420017  RH  084%=      5-min Rain = 0
KBY1 112258Z 00007KT 04/02 A2991 RMK A01 T00410016  RH  084%=      5-min Rain = 0
KBY1 112259Z 00007KT 04/02 A2991 RMK A01 T00410017  RH  084%=      5-min Rain = 0
KBY1 112300Z 36008KT 04/02 A2991 RMK A01 T00420017  RH  084%=      5-min Rain = 0
KBY1 112301Z 35007KT 04/02 A2991 RMK A01 T00420016  RH  084%=      5-min Rain = 0
KBY1 112302Z 00006KT 04/02 A2991 RMK A01 T00410016  RH  083%=      5-min Rain = 0
KBY1 112303Z 36009KT 04/02 A2991 RMK A01 T00420016  RH  083%=      5-min Rain = 0
KBY1 112304Z 35007KT 04/02 A2991 RMK A01 T00420015  RH  083%=      5-min Rain = 0
KBY1 112305Z 35005KT 04/02 A2991 RMK A01 T00420015  RH  083%=      5-min Rain = 0
KBY1 112306Z 36005KT 04/02 A2991 RMK A01 T00410015  RH  083%=      5-min Rain = 0
KBY1 112307Z 00004KT 04/02 A2991 RMK A01 T00420016  RH  084%=      5-min Rain = 0
KBY1 112308Z 01007G12KT 04/02 A2991 RMK A01 T00410016  RH  083%=      5-min Rain = 0
KBY1 112309Z 36005KT 04/02 A2991 RMK A01 T00420016  RH  083%=      5-min Rain = 0
KBY1 112310Z 35009KT 04/02 A2991 RMK A01 T00410015  RH  083%=      5-min Rain = 0
KBY1 112311Z 00009KT 04/01 A2991 RMK A01 T00420014  RH  082%=      5-min Rain = 0
KBY1 112312Z 35007KT 04/01 A2991 RMK A01 T00420014  RH  082%=      5-min Rain = 0
KBY1 112313Z 36007KT 04/02 A2991 RMK A01 T00420015  RH  082%=      5-min Rain = 0
KBY1 112314Z 36010KT 04/02 A2991 RMK A01 T00430015  RH  082%=      5-min Rain = 0
KBY1 112315Z 36009G14KT 04/01 A2992 RMK A01 T00430014  RH  082%=      5-min Rain = 0
KBY1 112316Z 00011KT 04/01 A2992 RMK A01 T00420014  RH  082%=      5-min Rain = 0
KBY1 112317Z 36009G14KT 04/01 A2992 RMK A01 T00420013  RH  081%=      5-min Rain = 0
KBY1 112318Z 00009KT 04/01 A2992 RMK A01 T00430013  RH  081%=      5-min Rain = 0
KBY1 112319Z 36006KT 04/01 A2992 RMK A01 T00420013  RH  081%=      5-min Rain = 0
KBY1 112320Z 36004KT 04/02 A2992 RMK A01 T00420015  RH  082%=      5-min Rain = 0
KBY1 112321Z 00004KT 04/02 A2992 RMK A01 T00430015  RH  082%=      5-min Rain = 0
KBY1 112322Z 35006KT 04/02 A2992 RMK A01 T00430015  RH  082%=      5-min Rain = 0
KBY1 112323Z 35006KT 04/02 A2992 RMK A01 T00430015  RH  082%=      5-min Rain = 0
KBY1 112324Z 35008KT 04/01 A2992 RMK A01 T00420014  RH  082%=      5-min Rain = 0
KBY1 112325Z 35007KT 04/01 A2992 RMK A01 T00430014  RH  082%=      5-min Rain = 0
KBY1 112326Z 00006KT 04/02 A2992 RMK A01 T00430015  RH  082%=      5-min Rain = 0
KBY1 112327Z 00009KT 04/02 A2992 RMK A01 T00430015  RH  082%=      5-min Rain = 0
KBY1 112328Z 35008KT 04/01 A2993 RMK A01 T00430014  RH  082%=      5-min Rain = 0
KBY1 112329Z 35007KT 04/01 A2993 RMK A01 T00430014  RH  081%=      5-min Rain = 0
KBY1 112330Z 35005KT 04/02 A2993 RMK A01 T00430015  RH  082%=      5-min Rain = 0
KBY1 112331Z 33008KT 04/02 A2993 RMK A01 T00430016  RH  082%=      5-min Rain = 0
KBY1 112332Z 36007KT 04/02 A2993 RMK A01 T00430016  RH  082%=      5-min Rain = 0
KBY1 112333Z 34008KT 04/02 A2993 RMK A01 T00430016  RH  082%=      5-min Rain = 0
KBY1 112334Z 00008KT 04/01 A2993 RMK A01 T00430014  RH  082%=      5-min Rain = 0
KBY1 112335Z 35007KT 04/01 A2993 RMK A01 T00430014  RH  082%=      5-min Rain = 0
KBY1 112336Z 36004KT 04/01 A2993 RMK A01 T00430014  RH  082%=      5-min Rain = 0
KBY1 112337Z 34005KT 04/02 A2993 RMK A01 T00430015  RH  082%=      5-min Rain = 0
KBY1 112338Z 35009KT 04/01 A2993 RMK A01 T00430014  RH  082%=      5-min Rain = 0
KBY1 112339Z 35007KT 04/01 A2993 RMK A01 T00430013  RH  081%=      5-min Rain = 0
KBY1 112340Z 35006KT 04/01 A2993 RMK A01 T00430013  RH  081%=      5-min Rain = 0
KBY1 112341Z 36008KT 04/01 A2993 RMK A01 T00430013  RH  081%=      5-min Rain = 0
KBY1 112342Z 34006KT 04/01 A2993 RMK A01 T00430013  RH  081%=      5-min Rain = 0
KBY1 112343Z 35006KT 04/01 A2993 RMK A01 T00430013  RH  081%=      5-min Rain = 0
KBY1 112344Z 34009KT 04/01 A2993 RMK A01 T00430013  RH  081%=      5-min Rain = 0
KBY1 112345Z 35009KT 04/01 A2993 RMK A01 T00430013  RH  081%=      5-min Rain = 0
KBY1 112346Z 36007KT 04/01 A2993 RMK A01 T00420013  RH  081%=      5-min Rain = 0
KBY1 112347Z 35005KT 04/01 A2993 RMK A01 T00430013  RH  081%=      5-min Rain = 0
KBY1 112348Z 34005KT 04/01 A2993 RMK A01 T00420014  RH  082%=      5-min Rain = 0
KBY1 112349Z 35005KT 04/01 A2993 RMK A01 T00420014  RH  082%=      5-min Rain = 0
KBY1 112350Z 35005KT 04/01 A2993 RMK A01 T00420014  RH  082%=      5-min Rain = 0
KBY1 112351Z 34007KT 04/01 A2993 RMK A01 T00420014  RH  082%=      5-min Rain = 0
KBY1 112352Z 35008KT 04/01 A2993 RMK A01 T00420013  RH  081%=      5-min Rain = 0
KBY1 112353Z 35009KT 04/01 A2993 RMK A01 T00420012  RH  081%=      5-min Rain = 0
KBY1 112354Z 34009KT 04/01 A2993 RMK A01 T00420011  RH  081%=      5-min Rain = 0
KBY1 112355Z 36008KT 04/01 A2993 RMK A01 T00420011  RH  080%=      5-min Rain = 0
KBY1 112356Z 00008KT 04/01 A2994 RMK A01 T00420011  RH  080%=      5-min Rain = 0
KBY1 112357Z 36005KT 04/01 A2994 RMK A01 T00420012  RH  081%=      5-min Rain = 0
KBY1 112358Z 36008KT 04/01 A2994 RMK A01 T00420012  RH  081%=      5-min Rain = 0
KBY1 112359Z 36005KT 04/01 A2994 RMK A01 T00420012  RH  081%=      5-min Rain = 0
KBY1 120000Z 36005KT 04/01 A2994 RMK A01 T00420013  RH  081%=      5-min Rain = 0
KBY1 120001Z 00005KT 04/01 A2994 RMK A01 T00420013  RH  082%=      5-min Rain = 0
KBY1 120002Z 35006KT 04/01 A2994 RMK A01 T00420013  RH  082%=      5-min Rain = 0
KBY1 120003Z 01004KT 04/01 A2994 RMK A01 T00420013  RH  082%=      5-min Rain = 0
KBY1 120004Z 35005KT 04/01 A2994 RMK A01 T00420013  RH  082%=      5-min Rain = 0
KBY1 120005Z 35004KT 04/01 A2994 RMK A01 T00410013  RH  082%=      5-min Rain = 0
KBY1 120006Z 36002KT 04/01 A2994 RMK A01 T00420013  RH  081%=      5-min Rain = 0
KBY1 120007Z 00004KT 04/01 A2994 RMK A01 T00420014  RH  082%=      5-min Rain = 0
KBY1 120008Z 36005KT 04/01 A2994 RMK A01 T00410014  RH  082%=      5-min Rain = 0
KBY1 120009Z 00005KT 04/01 A2994 RMK A01 T00410013  RH  082%=      5-min Rain = 0
KBY1 120010Z 35003KT 04/01 A2994 RMK A01 T00410013  RH  082%=      5-min Rain = 0
KBY1 120011Z 35005KT 04/01 A2994 RMK A01 T00410014  RH  082%=      5-min Rain = 0
KBY1 120012Z 35005KT 04/01 A2994 RMK A01 T00410013  RH  082%=      5-min Rain = 0
KBY1 120013Z 00004KT 04/01 A2994 RMK A01 T00410013  RH  082%=      5-min Rain = 0
KBY1 120014Z 35005KT 04/01 A2994 RMK A01 T00410014  RH  082%=      5-min Rain = 0
KBY1 120015Z 36009KT 04/01 A2994 RMK A01 T00410013  RH  082%=      5-min Rain = 0
KBY1 120016Z 35006KT 04/01 A2994 RMK A01 T00410013  RH  082%=      5-min Rain = 0
KBY1 120017Z 35005KT 04/01 A2994 RMK A01 T00410013  RH  082%=      5-min Rain = 0
KBY1 120018Z 36008KT 04/01 A2994 RMK A01 T00420013  RH  082%=      5-min Rain = 0
KBY1 120019Z 00006KT 04/01 A2994 RMK A01 T00420013  RH  081%=      5-min Rain = 0
KBY1 120020Z 00008KT 04/01 A2994 RMK A01 T00420012  RH  081%=      5-min Rain = 0
KBY1 120021Z 00008KT 04/01 A2994 RMK A01 T00420012  RH  081%=      5-min Rain = 0
KBY1 120022Z 01008KT 04/01 A2994 RMK A01 T00420012  RH  081%=      5-min Rain = 0
KBY1 120023Z 36006KT 04/01 A2994 RMK A01 T00420012  RH  081%=      5-min Rain = 0
KBY1 120024Z 35004KT 04/01 A2994 RMK A01 T00430013  RH  081%=      5-min Rain = 0
KBY1 120025Z 36006KT 04/01 A2994 RMK A01 T00430014  RH  081%=      5-min Rain = 0
KBY1 120026Z 35007KT 04/01 A2994 RMK A01 T00420014  RH  082%=      5-min Rain = 0
KBY1 120027Z 33007KT 04/01 A2994 RMK A01 T00420013  RH  081%=      5-min Rain = 0
KBY1 120028Z 35012KT 04/01 A2994 RMK A01 T00430012  RH  081%=      5-min Rain = 0
KBY1 120029Z 36010KT 04/01 A2994 RMK A01 T00430011  RH  080%=      5-min Rain = 0
KBY1 120030Z 36009KT 04/01 A2994 RMK A01 T00420011  RH  080%=      5-min Rain = 0
KBY1 120031Z 35009KT 04/01 A2994 RMK A01 T00430011  RH  080%=      5-min Rain = 0
KBY1 120032Z 36006KT 04/01 A2994 RMK A01 T00430011  RH  080%=      5-min Rain = 0
KBY1 120033Z 35008KT 04/01 A2994 RMK A01 T00430013  RH  081%=      5-min Rain = 0
KBY1 120034Z 35006KT 04/01 A2994 RMK A01 T00420012  RH  081%=      5-min Rain = 0
KBY1 120035Z 34006KT 04/01 A2994 RMK A01 T00420013  RH  081%=      5-min Rain = 0
KBY1 120036Z 35008KT 04/01 A2995 RMK A01 T00420013  RH  082%=      5-min Rain = 0
KBY1 120037Z 35007KT 04/01 A2995 RMK A01 T00420013  RH  081%=      5-min Rain = 0
KBY1 120038Z 35006KT 04/01 A2995 RMK A01 T00420012  RH  081%=      5-min Rain = 0
KBY1 120039Z 35008KT 04/01 A2995 RMK A01 T00420012  RH  081%=      5-min Rain = 0
KBY1 120040Z 35007KT 04/01 A2995 RMK A01 T00420012  RH  081%=      5-min Rain = 0
KBY1 120041Z 34006KT 04/01 A2995 RMK A01 T00420012  RH  081%=      5-min Rain = 0
KBY1 120042Z 35007KT 04/01 A2995 RMK A01 T00420013  RH  081%=      5-min Rain = 0
KBY1 120043Z 35006KT 04/01 A2995 RMK A01 T00410012  RH  081%=      5-min Rain = 0
KBY1 120044Z 35004KT 04/01 A2995 RMK A01 T00410013  RH  082%=      5-min Rain = 0
KBY1 120045Z 34007KT 04/01 A2995 RMK A01 T00410013  RH  082%=      5-min Rain = 0
KBY1 120046Z 34007KT 04/01 A2995 RMK A01 T00410013  RH  082%=      5-min Rain = 0
KBY1 120047Z 34006KT 04/01 A2995 RMK A01 T00410012  RH  082%=      5-min Rain = 0
KBY1 120048Z 35008KT 04/01 A2995 RMK A01 T00410013  RH  082%=      5-min Rain = 0
KBY1 120049Z 34005KT 04/01 A2995 RMK A01 T00410013  RH  082%=      5-min Rain = 0
KBY1 120050Z 35008KT 04/01 A2995 RMK A01 T00410013  RH  082%=      5-min Rain = 0
KBY1 120051Z 33008KT 04/01 A2995 RMK A01 T00400013  RH  082%=      5-min Rain = 0
KBY1 120052Z 34009KT 04/01 A2995 RMK A01 T00400012  RH  082%=      5-min Rain = 0
KBY1 120053Z 35008KT 04/01 A2995 RMK A01 T00400012  RH  082%=      5-min Rain = 0
KBY1 120054Z 34009KT 04/01 A2995 RMK A01 T00400013  RH  082%=      5-min Rain = 0
KBY1 120055Z 34009KT 04/01 A2995 RMK A01 T00400012  RH  082%=      5-min Rain = 0
KBY1 120056Z 33009G14KT 04/01 A2995 RMK A01 T00400012  RH  082%=      5-min Rain = 0
KBY1 120057Z 34014KT 04/01 A2995 RMK A01 T00400012  RH  082%=      5-min Rain = 0
KBY1 120058Z 34016KT 04/01 A2995 RMK A01 T00400011  RH  081%=      5-min Rain = 0
KBY1 120059Z 35014KT 04/01 A2995 RMK A01 T00390010  RH  081%=      5-min Rain = 0
KBY1 120100Z 35009KT 04/01 A2996 RMK A01 T00400010  RH  081%=      5-min Rain = 0
KBY1 120101Z 34011KT 04/01 A2996 RMK A01 T00390011  RH  082%=      5-min Rain = 0
KBY1 120102Z 35009KT 04/01 A2996 RMK A01 T00380011  RH  082%=      5-min Rain = 0
KBY1 120103Z 34011KT 04/01 A2996 RMK A01 T00380011  RH  082%=      5-min Rain = 0
KBY1 120104Z 34011KT 04/01 A2996 RMK A01 T00380011  RH  082%=      5-min Rain = 0
KBY1 120105Z 35013KT 04/01 A2996 RMK A01 T00380010  RH  082%=      5-min Rain = 0
KBY1 120106Z 35010KT 04/01 A2996 RMK A01 T00380010  RH  082%=      5-min Rain = 0
KBY1 120107Z 34008KT 04/01 A2996 RMK A01 T00370011  RH  083%=      5-min Rain = 0
KBY1 120108Z 35010KT 04/01 A2996 RMK A01 T00370011  RH  083%=      5-min Rain = 0
KBY1 120109Z 35011KT 04/01 A2996 RMK A01 T00360011  RH  083%=      5-min Rain = 0
KBY1 120110Z 35012KT 04/01 A2996 RMK A01 T00360010  RH  083%=      5-min Rain = 0
KBY1 120111Z 35010KT 04/01 A2996 RMK A01 T00360010  RH  083%=      5-min Rain = 0
KBY1 120112Z 35009KT 04/01 A2996 RMK A01 T00360010  RH  083%=      5-min Rain = 0
KBY1 120113Z 34013KT 04/01 A2996 RMK A01 T00360010  RH  083%=      5-min Rain = 0
KBY1 120114Z 34011KT 04/01 A2996 RMK A01 T00360010  RH  083%=      5-min Rain = 0
KBY1 120115Z 35010KT 04/01 A2996 RMK A01 T00360009  RH  083%=      5-min Rain = 0
KBY1 120116Z 34010KT 04/01 A2996 RMK A01 T00360010  RH  083%=      5-min Rain = 0
KBY1 120117Z 35009KT 04/01 A2996 RMK A01 T00360010  RH  083%=      5-min Rain = 0
KBY1 120118Z 36011KT 04/01 A2996 RMK A01 T00350010  RH  083%=      5-min Rain = 0
KBY1 120119Z 35009KT 04/01 A2996 RMK A01 T00350010  RH  084%=      5-min Rain = 0
KBY1 120120Z 35009KT 04/01 A2997 RMK A01 T00350010  RH  084%=      5-min Rain = 0
KBY1 120121Z 36008KT 04/01 A2997 RMK A01 T00350011  RH  084%=      5-min Rain = 0
KBY1 120122Z 36009KT 04/01 A2997 RMK A01 T00350010  RH  084%=      5-min Rain = 0
KBY1 120123Z 35006KT 04/01 A2997 RMK A01 T00350011  RH  084%=      5-min Rain = 0
KBY1 120124Z 34007KT 04/01 A2997 RMK A01 T00350011  RH  084%=      5-min Rain = 0
KBY1 120125Z 35006KT 04/01 A2997 RMK A01 T00350011  RH  084%=      5-min Rain = 0
KBY1 120126Z 35007G12KT 03/01 A2997 RMK A01 T00340010  RH  084%=      5-min Rain = 0
KBY1 120127Z 35009KT 03/01 A2997 RMK A01 T00340010  RH  084%=      5-min Rain = 0
KBY1 120128Z 35008KT 03/01 A2997 RMK A01 T00340010  RH  084%=      5-min Rain = 0
KBY1 120129Z 36005KT 03/01 A2997 RMK A01 T00340010  RH  084%=      5-min Rain = 0
KBY1 120130Z 35006KT 03/01 A2997 RMK A01 T00340010  RH  084%=      5-min Rain = 0
KBY1 120131Z 35007KT 03/01 A2997 RMK A01 T00340010  RH  084%=      5-min Rain = 0
KBY1 120132Z 36006KT 03/01 A2997 RMK A01 T00340010  RH  084%=      5-min Rain = 0
KBY1 120133Z 35007KT 03/01 A2997 RMK A01 T00340010  RH  084%=      5-min Rain = 0
KBY1 120134Z 35005KT 03/01 A2997 RMK A01 T00340010  RH  084%=      5-min Rain = 0
KBY1 120135Z 00005KT 03/01 A2997 RMK A01 T00340010  RH  084%=      5-min Rain = 0
KBY1 120136Z 00010KT 03/01 A2997 RMK A01 T00340010  RH  084%=      5-min Rain = 0
KBY1 120137Z 01007KT 03/01 A2997 RMK A01 T00340009  RH  084%=      5-min Rain = 0
KBY1 120138Z 00006KT 03/01 A2997 RMK A01 T00340009  RH  083%=      5-min Rain = 0
KBY1 120139Z 36008KT 03/01 A2997 RMK A01 T00340009  RH  084%=      5-min Rain = 0
KBY1 120140Z 35007KT 03/01 A2997 RMK A01 T00340009  RH  083%=      5-min Rain = 0
KBY1 120141Z 35007KT 03/01 A2997 RMK A01 T00340008  RH  083%=      5-min Rain = 0
KBY1 120142Z 36006KT 04/01 A2997 RMK A01 T00350008  RH  083%=      5-min Rain = 0
KBY1 120143Z 36007KT 03/01 A2997 RMK A01 T00340008  RH  083%=      5-min Rain = 0
KBY1 120144Z 36007KT 03/01 A2997 RMK A01 T00340008  RH  083%=      5-min Rain = 0
KBY1 120145Z 35006KT 03/01 A2997 RMK A01 T00340008  RH  083%=      5-min Rain = 0
KBY1 120146Z 35006KT 03/01 A2997 RMK A01 T00340008  RH  083%=      5-min Rain = 0
KBY1 120147Z 36006KT 03/01 A2997 RMK A01 T00340008  RH  083%=      5-min Rain = 0
KBY1 120148Z 36008KT 03/01 A2997 RMK A01 T00340008  RH  083%=      5-min Rain = 0
KBY1 120149Z 36006KT 03/01 A2997 RMK A01 T00340008  RH  083%=      5-min Rain = 0
KBY1 120150Z 35007KT 03/01 A2997 RMK A01 T00340008  RH  083%=      5-min Rain = 0
KBY1 120151Z 34008KT 03/01 A2997 RMK A01 T00340008  RH  083%=      5-min Rain = 0
KBY1 120152Z 35009KT 03/01 A2997 RMK A01 T00340007  RH  083%=      5-min Rain = 0
KBY1 120153Z 35008KT 03/01 A2997 RMK A01 T00340006  RH  082%=      5-min Rain = 0
KBY1 120154Z 35007KT 03/01 A2997 RMK A01 T00340007  RH  083%=      5-min Rain = 0
KBY1 120155Z 35007KT 03/01 A2997 RMK A01 T00340007  RH  083%=      5-min Rain = 0
KBY1 120156Z 36008KT 03/01 A2997 RMK A01 T00340007  RH  082%=      5-min Rain = 0
KBY1 120157Z 35006KT 03/01 A2997 RMK A01 T00340007  RH  082%=      5-min Rain = 0
KBY1 120158Z 34006KT 03/01 A2997 RMK A01 T00340007  RH  083%=      5-min Rain = 0
KBY1 120159Z 34007KT 03/01 A2997 RMK A01 T00340007  RH  083%=      5-min Rain = 0
KBY1 120200Z 34006KT 03/01 A2997 RMK A01 T00340007  RH  082%=      5-min Rain = 0
KBY1 120201Z 35007KT 03/01 A2997 RMK A01 T00340007  RH  083%=      5-min Rain = 0
KBY1 120202Z 35007KT 03/01 A2998 RMK A01 T00330007  RH  083%=      5-min Rain = 0
KBY1 120203Z 35009KT 03/01 A2997 RMK A01 T00330006  RH  083%=      5-min Rain = 0
KBY1 120204Z 34007KT 03/01 A2998 RMK A01 T00330006  RH  082%=      5-min Rain = 0
KBY1 120205Z 34009KT 03/01 A2998 RMK A01 T00330006  RH  082%=      5-min Rain = 0
KBY1 120206Z 35009KT 03/01 A2998 RMK A01 T00330006  RH  082%=      5-min Rain = 0
KBY1 120207Z 35009KT 03/01 A2998 RMK A01 T00330006  RH  082%=      5-min Rain = 0
KBY1 120208Z 35007KT 03/01 A2998 RMK A01 T00330006  RH  083%=      5-min Rain = 0
KBY1 120209Z 35005KT 03/01 A2998 RMK A01 T00330007  RH  083%=      5-min Rain = 0
KBY1 120210Z 35004KT 03/01 A2998 RMK A01 T00330007  RH  083%=      5-min Rain = 0
KBY1 120211Z 35004KT 03/01 A2997 RMK A01 T00330007  RH  083%=      5-min Rain = 0
KBY1 120212Z 34004KT 03/01 A2997 RMK A01 T00330007  RH  083%=      5-min Rain = 0
KBY1 120213Z 34005KT 03/01 A2997 RMK A01 T00320007  RH  084%=      5-min Rain = 0
KBY1 120214Z 34008KT 03/01 A2997 RMK A01 T00320007  RH  083%=      5-min Rain = 0
KBY1 120215Z 34006KT 03/01 A2997 RMK A01 T00320007  RH  083%=      5-min Rain = 0
KBY1 120216Z 34007KT 03/01 A2997 RMK A01 T00320007  RH  083%=      5-min Rain = 0
KBY1 120217Z 34007KT 03/01 A2997 RMK A01 T00330007  RH  083%=      5-min Rain = 0
KBY1 120218Z 34005KT 03/01 A2997 RMK A01 T00320007  RH  084%=      5-min Rain = 0
KBY1 120219Z 33004KT 03/01 A2997 RMK A01 T00320008  RH  084%=      5-min Rain = 0
KBY1 120220Z 34006KT 03/01 A2997 RMK A01 T00320008  RH  084%=      5-min Rain = 0
KBY1 120221Z 33005KT 03/01 A2997 RMK A01 T00320008  RH  084%=      5-min Rain = 0
KBY1 120222Z 31002KT 03/01 A2997 RMK A01 T00320008  RH  084%=      5-min Rain = 0
KBY1 120223Z 33003KT 03/01 A2997 RMK A01 T00320008  RH  084%=      5-min Rain = 0
KBY1 120224Z 33004KT 03/01 A2997 RMK A01 T00330009  RH  085%=      5-min Rain = 0
KBY1 120225Z 33005KT 03/01 A2997 RMK A01 T00320009  RH  085%=      5-min Rain = 0
KBY1 120226Z 32003KT 03/01 A2997 RMK A01 T00320008  RH  085%=      5-min Rain = 0
KBY1 120227Z 33004KT 03/01 A2997 RMK A01 T00320008  RH  084%=      5-min Rain = 0
KBY1 120228Z 32003KT 03/01 A2997 RMK A01 T00320008  RH  085%=      5-min Rain = 0
KBY1 120229Z 33003KT 03/01 A2997 RMK A01 T00320008  RH  085%=      5-min Rain = 0
KBY1 120230Z 32003KT 03/01 A2997 RMK A01 T00320009  RH  085%=      5-min Rain = 0
KBY1 120231Z 32004KT 03/01 A2997 RMK A01 T00320009  RH  085%=      5-min Rain = 0
KBY1 120232Z 33005KT 03/01 A2997 RMK A01 T00320009  RH  085%=      5-min Rain = 0
KBY1 120233Z 32005KT 03/01 A2997 RMK A01 T00320009  RH  085%=      5-min Rain = 0
KBY1 120234Z 33006KT 03/01 A2997 RMK A01 T00320009  RH  085%=      5-min Rain = 0
KBY1 120235Z 33006KT 03/01 A2997 RMK A01 T00320008  RH  085%=      5-min Rain = 0
KBY1 120236Z 33005KT 03/01 A2997 RMK A01 T00320008  RH  085%=      5-min Rain = 0
KBY1 120237Z 34004KT 03/01 A2997 RMK A01 T00320008  RH  085%=      5-min Rain = 0
KBY1 120238Z 34006KT 03/01 A2997 RMK A01 T00320008  RH  085%=      5-min Rain = 0
KBY1 120239Z 34011KT 03/01 A2997 RMK A01 T00320008  RH  084%=      5-min Rain = 0
KBY1 120240Z 34008KT 03/01 A2997 RMK A01 T00320007  RH  084%=      5-min Rain = 0
KBY1 120241Z 34007KT 03/01 A2997 RMK A01 T00320007  RH  084%=      5-min Rain = 0
KBY1 120242Z 35008KT 03/01 A2997 RMK A01 T00320007  RH  084%=      5-min Rain = 0
KBY1 120243Z 33008KT 03/01 A2997 RMK A01 T00320007  RH  084%=      5-min Rain = 0
KBY1 120244Z 34009KT 03/01 A2997 RMK A01 T00320008  RH  084%=      5-min Rain = 0
KBY1 120245Z 33008KT 03/01 A2997 RMK A01 T00320007  RH  084%=      5-min Rain = 0
KBY1 120246Z 33008KT 03/01 A2997 RMK A01 T00320007  RH  084%=      5-min Rain = 0
KBY1 120247Z 32008KT 03/01 A2997 RMK A01 T00320007  RH  084%=      5-min Rain = 0
KBY1 120248Z 34007KT 03/01 A2997 RMK A01 T00320007  RH  084%=      5-min Rain = 0
KBY1 120249Z 33007KT 03/01 A2997 RMK A01 T00320007  RH  084%=      5-min Rain = 0
KBY1 120250Z 33004KT 03/01 A2997 RMK A01 T00320008  RH  084%=      5-min Rain = 0
KBY1 120251Z 34010KT 03/01 A2998 RMK A01 T00320008  RH  084%=      5-min Rain = 0
KBY1 120252Z 34008KT 03/01 A2998 RMK A01 T00320008  RH  084%=      5-min Rain = 0
KBY1 120253Z 34008KT 03/01 A2998 RMK A01 T00320008  RH  084%=      5-min Rain = 0
KBY1 120254Z 34007G13KT 03/01 A2998 RMK A01 T00320007  RH  084%=      5-min Rain = 0
KBY1 120255Z 33009KT 03/01 A2998 RMK A01 T00320007  RH  084%=      5-min Rain = 0
KBY1 120256Z 33010KT 03/01 A2998 RMK A01 T00310007  RH  084%=      5-min Rain = 0
KBY1 120257Z 33008KT 03/01 A2998 RMK A01 T00310007  RH  084%=      5-min Rain = 0
KBY1 120258Z 33010KT 03/01 A2998 RMK A01 T00310007  RH  084%=      5-min Rain = 0
KBY1 120259Z 34009KT 03/01 A2998 RMK A01 T00310006  RH  084%=      5-min Rain = 0
KBY1 120300Z 34009KT 03/01 A2998 RMK A01 T00310007  RH  084%=      5-min Rain = 0
KBY1 120301Z 34009KT 03/01 A2998 RMK A01 T00310007  RH  084%=      5-min Rain = 0
KBY1 120302Z 34009KT 03/01 A2998 RMK A01 T00320007  RH  084%=      5-min Rain = 0
KBY1 120303Z 34006KT 03/01 A2998 RMK A01 T00320007  RH  084%=      5-min Rain = 0
KBY1 120304Z 33007KT 03/01 A2998 RMK A01 T00310007  RH  084%=      5-min Rain = 0
KBY1 120305Z 33010KT 03/01 A2998 RMK A01 T00310007  RH  084%=      5-min Rain = 0
KBY1 120306Z 33009KT 03/01 A2998 RMK A01 T00310007  RH  084%=      5-min Rain = 0
KBY1 120307Z 34006KT 03/01 A2998 RMK A01 T00310006  RH  084%=      5-min Rain = 0
KBY1 120308Z 34007KT 03/01 A2998 RMK A01 T00310007  RH  084%=      5-min Rain = 0
KBY1 120309Z 33007KT 03/01 A2998 RMK A01 T00310007  RH  084%=      5-min Rain = 0
KBY1 120310Z 34004KT 03/01 A2998 RMK A01 T00310007  RH  084%=      5-min Rain = 0
KBY1 120311Z 34006KT 03/01 A2998 RMK A01 T00300007  RH  085%=      5-min Rain = 0
KBY1 120312Z 33009KT 03/01 A2998 RMK A01 T00310007  RH  085%=      5-min Rain = 0
KBY1 120313Z 34007KT 03/01 A2998 RMK A01 T00300006  RH  084%=      5-min Rain = 0
KBY1 120314Z 33009KT 03/01 A2998 RMK A01 T00310006  RH  084%=      5-min Rain = 0
KBY1 120315Z 33009KT 03/01 A2998 RMK A01 T00310006  RH  084%=      5-min Rain = 0
KBY1 120316Z 33008KT 03/01 A2998 RMK A01 T00310006  RH  084%=      5-min Rain = 0
KBY1 120317Z 33008KT 03/01 A2998 RMK A01 T00310007  RH  084%=      5-min Rain = 0
KBY1 120318Z 33008KT 03/01 A2998 RMK A01 T00310007  RH  085%=      5-min Rain = 0
KBY1 120319Z 33006KT 03/01 A2998 RMK A01 T00310008  RH  085%=      5-min Rain = 0
KBY1 120320Z 32005KT 03/01 A2998 RMK A01 T00310009  RH  086%=      5-min Rain = 0
KBY1 120321Z 31006KT 03/01 A2998 RMK A01 T00300010  RH  086%=      5-min Rain = 0
KBY1 120322Z 32007KT 03/01 A2999 RMK A01 T00300010  RH  087%=      5-min Rain = 0
KBY1 120323Z 33008KT 03/01 A2999 RMK A01 T00300010  RH  087%=      5-min Rain = 0
KBY1 120324Z 33008KT 03/01 A2999 RMK A01 T00300010  RH  087%=      5-min Rain = 0
KBY1 120325Z 33009KT 03/01 A2999 RMK A01 T00300010  RH  087%=      5-min Rain = 0
KBY1 120326Z 32006KT 03/01 A2999 RMK A01 T00300010  RH  087%=      5-min Rain = 0
KBY1 120327Z 31006KT 03/01 A2999 RMK A01 T00300010  RH  087%=      5-min Rain = 0
KBY1 120328Z 32005KT 03/01 A2999 RMK A01 T00300011  RH  087%=      5-min Rain = 0
KBY1 120329Z 31005KT 03/01 A2999 RMK A01 T00300011  RH  088%=      5-min Rain = 0
KBY1 120330Z 32007KT 03/01 A2999 RMK A01 T00300011  RH  088%=      5-min Rain = 0
KBY1 120331Z 31006KT 03/01 A2999 RMK A01 T00300011  RH  087%=      5-min Rain = 0
KBY1 120332Z 32008KT 03/01 A2999 RMK A01 T00300010  RH  087%=      5-min Rain = 0
KBY1 120333Z 32007KT 03/01 A2999 RMK A01 T00300010  RH  087%=      5-min Rain = 0
KBY1 120334Z 32008KT 03/01 A2999 RMK A01 T00300009  RH  087%=      5-min Rain = 0
KBY1 120335Z 32008KT 03/01 A2999 RMK A01 T00300010  RH  087%=      5-min Rain = 0
KBY1 120336Z 31006KT 03/01 A2999 RMK A01 T00300010  RH  087%=      5-min Rain = 0
KBY1 120337Z 31008KT 03/01 A2999 RMK A01 T00300010  RH  087%=      5-min Rain = 0
KBY1 120338Z 32009KT 03/01 A2999 RMK A01 T00300010  RH  087%=      5-min Rain = 0
KBY1 120339Z 31010KT 03/01 A2999 RMK A01 T00300010  RH  086%=      5-min Rain = 0
KBY1 120340Z 32010KT 03/01 A2999 RMK A01 T00300009  RH  086%=      5-min Rain = 0
KBY1 120341Z 32009KT 03/01 A2999 RMK A01 T00310010  RH  086%=      5-min Rain = 0
KBY1 120342Z 32010KT 03/01 A2999 RMK A01 T00310009  RH  086%=      5-min Rain = 0
KBY1 120343Z 32009KT 03/01 A2999 RMK A01 T00310009  RH  086%=      5-min Rain = 0
KBY1 120344Z 33010KT 03/01 A2999 RMK A01 T00300008  RH  085%=      5-min Rain = 0
KBY1 120345Z 33010KT 03/01 A2999 RMK A01 T00300007  RH  085%=      5-min Rain = 0
KBY1 120346Z 33006KT 03/01 A2999 RMK A01 T00300008  RH  085%=      5-min Rain = 0
KBY1 120347Z 33007KT 03/01 A2999 RMK A01 T00300008  RH  086%=      5-min Rain = 0
KBY1 120348Z 32009KT 03/01 A2999 RMK A01 T00300008  RH  086%=      5-min Rain = 0
KBY1 120349Z 33011KT 03/01 A2999 RMK A01 T00300007  RH  085%=      5-min Rain = 0
KBY1 120350Z 33008KT 03/01 A2999 RMK A01 T00300006  RH  085%=      5-min Rain = 0
KBY1 120351Z 34010KT 03/01 A2999 RMK A01 T00300006  RH  085%=      5-min Rain = 0
KBY1 120352Z 33009KT 03/01 A2999 RMK A01 T00300006  RH  084%=      5-min Rain = 0
KBY1 120353Z 33007KT 03/01 A2999 RMK A01 T00300005  RH  084%=      5-min Rain = 0
KBY1 120354Z 34009KT 03/01 A2999 RMK A01 T00290005  RH  084%=      5-min Rain = 0
KBY1 120355Z 33009G14KT 03/01 A2999 RMK A01 T00290005  RH  084%=      5-min Rain = 0
KBY1 120356Z 34009KT 03/01 A2999 RMK A01 T00290005  RH  084%=      5-min Rain = 0
KBY1 120357Z 34009KT 03/00 A2999 RMK A01 T00290004  RH  084%=      5-min Rain = 0
KBY1 120358Z 34008KT 03/00 A2999 RMK A01 T00290004  RH  083%=      5-min Rain = 0
KBY1 120359Z 34008KT 03/00 A2999 RMK A01 T00290004  RH  083%=      5-min Rain = 0
KBY1 120400Z 34008KT 03/00 A2999 RMK A01 T00290004  RH  083%=      5-min Rain = 0
KBY1 120401Z 34012KT 03/00 A2999 RMK A01 T00290003  RH  083%=      5-min Rain = 0
KBY1 120402Z 35012KT 03/00 A2999 RMK A01 T00290002  RH  082%=      5-min Rain = 0
KBY1 120403Z 34012KT 03/00 A2999 RMK A01 T00290001  RH  082%=      5-min Rain = 0
KBY1 120404Z 34009KT 03/00 A2999 RMK A01 T00290001  RH  082%=      5-min Rain = 0
KBY1 120405Z 34008KT 03/00 A2999 RMK A01 T00290002  RH  083%=      5-min Rain = 0
KBY1 120406Z 33009KT 03/00 A2999 RMK A01 T00290003  RH  083%=      5-min Rain = 0
KBY1 120407Z 33009KT 03/00 A30 RMK A01 T00280003  RH  083%=      5-min Rain = 0
KBY1 120408Z 34007KT 03/00 A30 RMK A01 T00280003  RH  083%=      5-min Rain = 0
KBY1 120409Z 33006KT 03/00 A30 RMK A01 T00280003  RH  083%=      5-min Rain = 0
KBY1 120410Z 33006KT 03/00 A30 RMK A01 T00280004  RH  084%=      5-min Rain = 0
KBY1 120411Z 33008KT 03/00 A30 RMK A01 T00280004  RH  084%=      5-min Rain = 0
KBY1 120412Z 33008KT 03/00 A30 RMK A01 T00280004  RH  084%=      5-min Rain = 0
KBY1 120413Z 34007KT 03/00 A30 RMK A01 T00270004  RH  084%=      5-min Rain = 0
KBY1 120414Z 32007KT 03/00 A30 RMK A01 T00270004  RH  085%=      5-min Rain = 0
KBY1 120415Z 32008KT 03/01 A30 RMK A01 T00270005  RH  085%=      5-min Rain = 0
KBY1 120416Z 32008KT 03/01 A2999 RMK A01 T00270005  RH  085%=      5-min Rain = 0
KBY1 120417Z 32007KT 03/01 A2999 RMK A01 T00270005  RH  085%=      5-min Rain = 0
KBY1 120418Z 32008KT 03/01 A2999 RMK A01 T00270005  RH  086%=      5-min Rain = 0
KBY1 120419Z 32007G12KT 03/01 A2999 RMK A01 T00270005  RH  086%=      5-min Rain = 0
KBY1 120420Z 32009KT 03/01 A2999 RMK A01 T00270006  RH  086%=      5-min Rain = 0
KBY1 120421Z 32007KT 03/01 A2999 RMK A01 T00270006  RH  086%=      5-min Rain = 0
KBY1 120422Z 32007KT 03/01 A2999 RMK A01 T00270006  RH  086%=      5-min Rain = 0
KBY1 120423Z 31008G13KT 03/01 A2999 RMK A01 T00260006  RH  086%=      5-min Rain = 0
KBY1 120424Z 31010KT 03/01 A2999 RMK A01 T00270006  RH  086%=      5-min Rain = 0
KBY1 120425Z 31007G12KT 03/01 A30 RMK A01 T00270006  RH  086%=      5-min Rain = 0
KBY1 120426Z 31011G17KT 03/01 A30 RMK A01 T00270006  RH  086%=      5-min Rain = 0
KBY1 120427Z 32011KT 03/01 A30 RMK A01 T00270005  RH  086%=      5-min Rain = 0
KBY1 120428Z 32012KT 03/01 A30 RMK A01 T00270005  RH  085%=      5-min Rain = 0
KBY1 120429Z 32011G16KT 03/00 A30 RMK A01 T00270004  RH  085%=      5-min Rain = 0
KBY1 120430Z 32011G16KT 03/00 A30 RMK A01 T00270003  RH  084%=      5-min Rain = 0
KBY1 120431Z 33013KT 03/00 A30 RMK A01 T00270002  RH  084%=      5-min Rain = 0
KBY1 120432Z 33011G17KT 03/00 A30 RMK A01 T00270002  RH  083%=      5-min Rain = 0
KBY1 120433Z 34011G17KT 03/00 A30 RMK A01 T00280002  RH  083%=      5-min Rain = 0
KBY1 120434Z 34016KT 03/00 A30 RMK A01 T00270001  RH  083%=      5-min Rain = 0
KBY1 120435Z 33012G18KT 03/00 A30 RMK A01 T00270000  RH  082%=      5-min Rain = 0
KBY1 120436Z 34016KT 03/00 A30 RMK A01 T002700-0  RH  082%=      5-min Rain = 0
KBY1 120437Z 34014KT 03/M00 A30 RMK A01 T00271001  RH  082%=      5-min Rain = 0
KBY1 120438Z 34012G17KT 03/M00 A30 RMK A01 T00271001  RH  082%=      5-min Rain = 0
KBY1 120439Z 34015G20KT 03/M00 A30 RMK A01 T00271001  RH  082%=      5-min Rain = 0
KBY1 120440Z 34013G20KT 03/M00 A30 RMK A01 T00271002  RH  081%=      5-min Rain = 0
KBY1 120441Z 34012KT 03/M00 A30 RMK A01 T00271002  RH  081%=      5-min Rain = 0
KBY1 120442Z 34014G19KT 03/M00 A30 RMK A01 T00271002  RH  081%=      5-min Rain = 0
KBY1 120443Z 34016KT 03/M00 A30 RMK A01 T00271002  RH  081%=      5-min Rain = 0
KBY1 120444Z 34013G21KT 03/M00 A30 RMK A01 T00271003  RH  081%=      5-min Rain = 0
KBY1 120445Z 34013G18KT 03/M00 A30 RMK A01 T00271003  RH  081%=      5-min Rain = 0
KBY1 120446Z 34012KT 03/M00 A30 RMK A01 T00271003  RH  081%=      5-min Rain = 0
KBY1 120447Z 34011KT 03/M00 A30 RMK A01 T00261003  RH  081%=      5-min Rain = 0
KBY1 120448Z 34011KT 03/M00 A30 RMK A01 T00271003  RH  081%=      5-min Rain = 0
KBY1 120449Z 34012KT 03/M00 A30 RMK A01 T00261003  RH  081%=      5-min Rain = 0
KBY1 120450Z 35012G17KT 03/M00 A30 RMK A01 T00271003  RH  081%=      5-min Rain = 0
KBY1 120451Z 34010KT 03/M00 A30 RMK A01 T00261003  RH  081%=      5-min Rain = 0
KBY1 120452Z 34011KT 03/M00 A30 RMK A01 T00261003  RH  081%=      5-min Rain = 0
KBY1 120453Z 34012G17KT 03/M00 A30 RMK A01 T00261003  RH  081%=      5-min Rain = 0
KBY1 120454Z 34013KT 03/M00 A30 RMK A01 T00261004  RH  081%=      5-min Rain = 0
KBY1 120455Z 34014G20KT 03/M01 A30 RMK A01 T00261005  RH  080%=      5-min Rain = 0
KBY1 120456Z 34016KT 03/M01 A30 RMK A01 T00261005  RH  080%=      5-min Rain = 0
KBY1 120457Z 35013KT 03/M01 A30 RMK A01 T00261005  RH  080%=      5-min Rain = 0
KBY1 120458Z 35011KT 03/M01 A3001 RMK A01 T00271005  RH  080%=      5-min Rain = 0
KBY1 120459Z 34011KT 03/M00 A3001 RMK A01 T00261004  RH  080%=      5-min Rain = 0
KBY1 120500Z 34015KT 03/M00 A3001 RMK A01 T00261004  RH  081%=      5-min Rain = 0
KBY1 120501Z 34012KT 03/M00 A3001 RMK A01 T00271004  RH  080%=      5-min Rain = 0
KBY1 120502Z 34012KT 03/M00 A3001 RMK A01 T00271004  RH  080%=      5-min Rain = 0
KBY1 120503Z 34012KT 03/M00 A3001 RMK A01 T00271003  RH  081%=      5-min Rain = 0
KBY1 120504Z 34013KT 03/M00 A3001 RMK A01 T00271003  RH  081%=      5-min Rain = 0
KBY1 120505Z 35011G18KT 03/M00 A3001 RMK A01 T00271003  RH  081%=      5-min Rain = 0
KBY1 120506Z 34009KT 03/M00 A3001 RMK A01 T00261003  RH  081%=      5-min Rain = 0
KBY1 120507Z 34010KT 03/M00 A3001 RMK A01 T00271003  RH  081%=      5-min Rain = 0
KBY1 120508Z 34011KT 03/M00 A3001 RMK A01 T00261003  RH  081%=      5-min Rain = 0
KBY1 120509Z 34013G18KT 03/M00 A3001 RMK A01 T00271003  RH  081%=      5-min Rain = 0
KBY1 120510Z 33007KT 03/M00 A3001 RMK A01 T00271003  RH  081%=      5-min Rain = 0
KBY1 120511Z 34006G11KT 03/M00 A3001 RMK A01 T00261003  RH  081%=      5-min Rain = 0
KBY1 120512Z 33009KT 03/M00 A3001 RMK A01 T00261002  RH  082%=      5-min Rain = 0
KBY1 120513Z 33008KT 03/M00 A3001 RMK A01 T00261002  RH  082%=      5-min Rain = 0
KBY1 120514Z 32009KT 03/M00 A3001 RMK A01 T00261002  RH  082%=      5-min Rain = 0
KBY1 120515Z 33010KT 03/M00 A30 RMK A01 T00261002  RH  082%=      5-min Rain = 0
KBY1 120516Z 33008G13KT 03/M00 A30 RMK A01 T00261002  RH  082%=      5-min Rain = 0
KBY1 120517Z 33008KT 03/M00 A30 RMK A01 T00261002  RH  082%=      5-min Rain = 0
KBY1 120518Z 32008KT 03/M00 A30 RMK A01 T00261002  RH  082%=      5-min Rain = 0
KBY1 120519Z 33009KT 03/M00 A3001 RMK A01 T00261002  RH  082%=      5-min Rain = 0
KBY1 120520Z 33008KT 03/M00 A30 RMK A01 T00261002  RH  082%=      5-min Rain = 0
KBY1 120521Z 33006KT 03/M00 A30 RMK A01 T00261002  RH  082%=      5-min Rain = 0
KBY1 120522Z 33010KT 03/M00 A30 RMK A01 T00261002  RH  082%=      5-min Rain = 0
KBY1 120523Z 33011G17KT 03/M00 A30 RMK A01 T00261002  RH  082%=      5-min Rain = 0
KBY1 120524Z 33009KT 03/M00 A30 RMK A01 T00261002  RH  082%=      5-min Rain = 0
KBY1 120525Z 33009G15KT 03/M00 A30 RMK A01 T00261002  RH  082%=      5-min Rain = 0
KBY1 120526Z 34009KT 03/M00 A30 RMK A01 T00261002  RH  082%=      5-min Rain = 0
KBY1 120527Z 34010KT 03/M00 A30 RMK A01 T00261002  RH  082%=      5-min Rain = 0
KBY1 120528Z 34009G14KT 03/M00 A30 RMK A01 T00261002  RH  082%=      5-min Rain = 0
KBY1 120529Z 34008KT 03/M00 A30 RMK A01 T00261002  RH  082%=      5-min Rain = 0
KBY1 120530Z 33009G15KT 03/M00 A30 RMK A01 T00261002  RH  082%=      5-min Rain = 0
KBY1 120531Z 33009G15KT 03/M00 A30 RMK A01 T00261002  RH  082%=      5-min Rain = 0
KBY1 120532Z 34005KT 03/M00 A3001 RMK A01 T00261002  RH  082%=      5-min Rain = 0
KBY1 120533Z 33007KT 03/M00 A3001 RMK A01 T00251003  RH  082%=      5-min Rain = 0
KBY1 120534Z 34009KT 02/M00 A3001 RMK A01 T00241003  RH  082%=      5-min Rain = 0
KBY1 120535Z 33006KT 02/M00 A3001 RMK A01 T00241003  RH  082%=      5-min Rain = 0
KBY1 120536Z 33009KT 02/M00 A3001 RMK A01 T00241003  RH  083%=      5-min Rain = 0
KBY1 120537Z 33008KT 02/M00 A3001 RMK A01 T00241003  RH  083%=      5-min Rain = 0
KBY1 120538Z 33008KT 02/M00 A3001 RMK A01 T00231003  RH  083%=      5-min Rain = 0
KBY1 120539Z 33008G13KT 02/M00 A3001 RMK A01 T00231003  RH  083%=      5-min Rain = 0
KBY1 120540Z 33008G13KT 02/M00 A3001 RMK A01 T00231003  RH  083%=      5-min Rain = 0
KBY1 120541Z 32009G15KT 02/M00 A3001 RMK A01 T00231002  RH  083%=      5-min Rain = 0
KBY1 120542Z 33009KT 02/M00 A3001 RMK A01 T00231003  RH  083%=      5-min Rain = 0
KBY1 120543Z 32012KT 02/M00 A3001 RMK A01 T00231003  RH  083%=      5-min Rain = 0
KBY1 120544Z 33008KT 02/M00 A3001 RMK A01 T00231003  RH  083%=      5-min Rain = 0
KBY1 120545Z 33008G13KT 02/M00 A3001 RMK A01 T00231003  RH  083%=      5-min Rain = 0
KBY1 120546Z 33008G13KT 02/M00 A3001 RMK A01 T00231003  RH  083%=      5-min Rain = 0
KBY1 120547Z 32007KT 02/M00 A3001 RMK A01 T00221003  RH  084%=      5-min Rain = 0
KBY1 120548Z 33010KT 02/M00 A3001 RMK A01 T00221003  RH  084%=      5-min Rain = 0
KBY1 120549Z 32008G13KT 02/M00 A3001 RMK A01 T00221002  RH  084%=      5-min Rain = 0
KBY1 120550Z 33010KT 02/M00 A3001 RMK A01 T00221002  RH  084%=      5-min Rain = 0
KBY1 120551Z 32010G15KT 02/M00 A3001 RMK A01 T00221002  RH  084%=      5-min Rain = 0
KBY1 120552Z 32010KT 02/M00 A3001 RMK A01 T00221002  RH  084%=      5-min Rain = 0
KBY1 120553Z 32007KT 02/M00 A3001 RMK A01 T00231002  RH  084%=      5-min Rain = 0
KBY1 120554Z 32009KT 02/M00 A3001 RMK A01 T00231001  RH  084%=      5-min Rain = 0
KBY1 120555Z 32006KT 02/M00 A3001 RMK A01 T00231001  RH  084%=      5-min Rain = 0
KBY1 120556Z 32008KT 02/M00 A3001 RMK A01 T00231001  RH  084%=      5-min Rain = 0
KBY1 120557Z 31009KT 02/M00 A3001 RMK A01 T00231001  RH  084%=      5-min Rain = 0
KBY1 120558Z 32008KT 02/00 A3001 RMK A01 T002400-0  RH  084%=      5-min Rain = 0
KBY1 120559Z 33007KT 02/00 A3002 RMK A01 T00240000  RH  084%=      5-min Rain = 0

Page generated in 0.0321 seconds.